Wetterdaten: Donnerstag, 05.07.2018
Datum Zeit Temp. Aussen Temp. o. S. +5cm Feuchte Auss Luftdruck Regen Sonnenschein Regendauer Solar Windben Empfang
05.07.2018 00:00 21,9 C 18,3 C 18,3 C 84 % 1010,7 hPa 0,0 l/m 0 min 0 min 0 W/m 2,3 km/h (1 Bft) 97,83 %
05.07.2018 00:02 21,9 C 18,3 C 18,3 C 84 % 1010,7 hPa 0,0 l/m 0 min 0 min 0 W/m 0,0 km/h (0 Bft) 20,00 %
05.07.2018 00:04 21,8 C 18,3 C 17,8 C 83 % 1010,7 hPa 0,0 l/m 0 min 0 min 0 W/m 6,8 km/h (2 Bft) 68,29 %
05.07.2018 00:08 21,6 C 18,3 C 17,8 C 82 % 1010,8 hPa 0,0 l/m 0 min 0 min 0 W/m 4,5 km/h (1 Bft) 98,06 %
05.07.2018 00:10 21,6 C 18,3 C 17,8 C 82 % 1010,7 hPa 0,0 l/m 0 min 0 min 0 W/m 2,3 km/h (1 Bft) 97,87 %
05.07.2018 00:12 21,5 C 18,3 C 17,8 C 82 % 1010,8 hPa 0,0 l/m 0 min 0 min 0 W/m 0,0 km/h (0 Bft) 97,83 %
05.07.2018 00:14 21,5 C 17,8 C 17,8 C 82 % 1010,7 hPa 0,0 l/m 0 min 0 min 0 W/m 0,0 km/h (0 Bft) 97,87 %
05.07.2018 00:16 21,4 C 17,8 C 17,8 C 82 % 1010,7 hPa 0,0 l/m 0 min 0 min 0 W/m 4,5 km/h (1 Bft) 97,87 %
05.07.2018 00:18 21,4 C 17,8 C 17,8 C 82 % 1010,8 hPa 0,0 l/m 0 min 0 min 0 W/m 4,5 km/h (1 Bft) 97,87 %
05.07.2018 00:20 21,3 C 17,8 C 17,8 C 82 % 1010,9 hPa 0,0 l/m 0 min 0 min 0 W/m 4,5 km/h (1 Bft) 95,74 %
05.07.2018 00:22 21,3 C 17,8 C 17,8 C 81 % 1010,9 hPa 0,0 l/m 0 min 0 min 0 W/m 4,5 km/h (1 Bft) 97,87 %
05.07.2018 00:24 21,2 C 17,8 C 17,8 C 81 % 1010,8 hPa 0,0 l/m 0 min 0 min 0 W/m 4,5 km/h (1 Bft) 95,65 %
05.07.2018 00:26 21,2 C 17,8 C 17,8 C 81 % 1010,8 hPa 0,0 l/m 0 min 0 min 0 W/m 2,3 km/h (1 Bft) 100,00 %
05.07.2018 00:28 21,1 C 17,8 C 18,3 C 81 % 1010,8 hPa 0,0 l/m 0 min 0 min 0 W/m 0,0 km/h (0 Bft) 100,00 %
05.07.2018 00:30 21,1 C 17,8 C 18,3 C 81 % 1010,8 hPa 0,0 l/m 0 min 0 min 0 W/m 0,0 km/h (0 Bft) 100,00 %
05.07.2018 00:32 21,0 C 17,8 C 18,3 C 81 % 1010,8 hPa 0,0 l/m 0 min 0 min 0 W/m 0,0 km/h (0 Bft) 95,74 %
05.07.2018 00:34 20,9 C 17,8 C 18,3 C 81 % 1010,8 hPa 0,0 l/m 0 min 0 min 0 W/m 4,5 km/h (1 Bft) 97,83 %
05.07.2018 00:36 20,9 C 17,8 C 18,3 C 81 % 1010,8 hPa 0,0 l/m 0 min 0 min 0 W/m 2,3 km/h (1 Bft) 97,87 %
05.07.2018 00:38 20,8 C 17,8 C 18,3 C 80 % 1010,8 hPa 0,0 l/m 0 min 0 min 0 W/m 4,5 km/h (1 Bft) 100,00 %
05.07.2018 00:40 20,8 C 17,8 C 18,3 C 80 % 1010,8 hPa 0,0 l/m 0 min 0 min 0 W/m 0,0 km/h (0 Bft) 100,00 %
05.07.2018 00:42 20,7 C 17,8 C 18,3 C 80 % 1010,8 hPa 0,0 l/m 0 min 0 min 0 W/m 0,0 km/h (0 Bft) 100,00 %
05.07.2018 00:44 20,7 C 17,8 C 18,3 C 80 % 1010,8 hPa 0,0 l/m 0 min 0 min 0 W/m 0,0 km/h (0 Bft) 97,87 %
05.07.2018 00:46 20,6 C 17,8 C 18,3 C 80 % 1010,8 hPa 0,0 l/m 0 min 0 min 0 W/m 0,0 km/h (0 Bft) 100,00 %
05.07.2018 00:48 20,6 C 17,8 C 18,3 C 80 % 1010,7 hPa 0,0 l/m 0 min 0 min 0 W/m 0,0 km/h (0 Bft) 97,87 %
05.07.2018 00:50 20,5 C 17,8 C 18,3 C 80 % 1010,7 hPa 0,0 l/m 0 min 0 min 0 W/m 0,0 km/h (0 Bft) 100,00 %
05.07.2018 00:52 20,4 C 17,8 C 18,3 C 80 % 1010,8 hPa 0,0 l/m 0 min 0 min 0 W/m 0,0 km/h (0 Bft) 93,75 %
05.07.2018 00:54 20,4 C 17,8 C 18,3 C 80 % 1010,8 hPa 0,0 l/m 0 min 0 min 0 W/m 0,0 km/h (0 Bft) 97,87 %
05.07.2018 00:56 20,4 C 17,8 C 18,3 C 80 % 1010,7 hPa 0,0 l/m 0 min 0 min 0 W/m 0,0 km/h (0 Bft) 97,87 %
05.07.2018 00:58 20,3 C 17,2 C 18,3 C 80 % 1010,7 hPa 0,0 l/m 0 min 0 min 0 W/m 0,0 km/h (0 Bft) 97,83 %
05.07.2018 01:00 20,3 C 17,2 C 17,8 C 80 % 1010,7 hPa 0,0 l/m 0 min 0 min 0 W/m 0,0 km/h (0 Bft) 97,87 %
05.07.2018 01:02 20,3 C 17,2 C 17,8 C 80 % 1010,7 hPa 0,0 l/m 0 min 0 min 0 W/m 0,0 km/h (0 Bft) 97,87 %
05.07.2018 01:04 20,2 C 17,2 C 18,3 C 80 % 1010,6 hPa 0,0 l/m 0 min 0 min 0 W/m 4,5 km/h (1 Bft) 97,87 %
05.07.2018 01:08 20,2 C 17,2 C 18,3 C 79 % 1010,7 hPa 0,0 l/m 0 min 0 min 0 W/m 4,5 km/h (1 Bft) 93,62 %
05.07.2018 01:10 20,1 C 17,2 C 18,3 C 79 % 1010,6 hPa 0,0 l/m 0 min 0 min 0 W/m 4,5 km/h (1 Bft) 95,65 %
05.07.2018 01:12 20,1 C 17,2 C 18,3 C 79 % 1010,6 hPa 0,0 l/m 0 min 0 min 0 W/m 4,5 km/h (1 Bft) 93,62 %
05.07.2018 01:14 20,0 C 17,2 C 18,3 C 79 % 1010,5 hPa 0,0 l/m 0 min 0 min 0 W/m 2,3 km/h (1 Bft) 95,74 %
05.07.2018 01:16 19,9 C 17,2 C 18,3 C 79 % 1010,5 hPa 0,0 l/m 0 min 0 min 0 W/m 0,0 km/h (0 Bft) 95,74 %
05.07.2018 01:18 19,9 C 16,7 C 18,3 C 79 % 1010,5 hPa 0,0 l/m 0 min 0 min 0 W/m 0,0 km/h (0 Bft) 95,74 %
05.07.2018 01:20 19,9 C 16,7 C 18,3 C 79 % 1010,5 hPa 0,0 l/m 0 min 0 min 0 W/m 0,0 km/h (0 Bft) 95,74 %
05.07.2018 01:22 19,9 C 16,7 C 18,3 C 78 % 1010,5 hPa 0,0 l/m 0 min 0 min 0 W/m 0,0 km/h (0 Bft) 93,48 %
05.07.2018 01:24 19,8 C 16,7 C 18,3 C 78 % 1010,5 hPa 0,0 l/m 0 min 0 min 0 W/m 0,0 km/h (0 Bft) 95,74 %
05.07.2018 01:26 19,8 C 16,7 C 18,3 C 78 % 1010,4 hPa 0,0 l/m 0 min 0 min 0 W/m 0,0 km/h (0 Bft) 93,62 %
05.07.2018 01:28 19,8 C 16,7 C 18,3 C 78 % 1010,5 hPa 0,0 l/m 0 min 0 min 0 W/m 0,0 km/h (0 Bft) 95,74 %
05.07.2018 01:30 19,7 C 16,7 C 18,3 C 78 % 1010,6 hPa 0,0 l/m 0 min 0 min 0 W/m 0,0 km/h (0 Bft) 95,74 %
05.07.2018 01:32 19,7 C 16,7 C 18,3 C 78 % 1010,6 hPa 0,0 l/m 0 min 0 min 0 W/m 0,0 km/h (0 Bft) 95,65 %
05.07.2018 01:34 19,7 C 16,7 C 18,3 C 78 % 1010,6 hPa 0,0 l/m 0 min 0 min 0 W/m 0,0 km/h (0 Bft) 95,74 %
05.07.2018 01:36 19,7 C 16,7 C 18,3 C 78 % 1010,6 hPa 0,0 l/m 0 min 0 min 0 W/m 0,0 km/h (0 Bft) 97,87 %
05.07.2018 01:38 19,6 C 16,7 C 17,8 C 78 % 1010,6 hPa 0,0 l/m 0 min 0 min 0 W/m 0,0 km/h (0 Bft) 97,87 %
05.07.2018 01:40 19,6 C 16,7 C 17,8 C 77 % 1010,6 hPa 0,0 l/m 0 min 0 min 0 W/m 0,0 km/h (0 Bft) 97,87 %
05.07.2018 01:42 19,6 C 16,7 C 17,8 C 77 % 1010,6 hPa 0,0 l/m 0 min 0 min 0 W/m 0,0 km/h (0 Bft) 95,74 %
05.07.2018 01:44 19,6 C 16,7 C 17,8 C 77 % 1010,5 hPa 0,0 l/m 0 min 0 min 0 W/m 0,0 km/h (0 Bft) 93,62 %
05.07.2018 01:46 19,5 C 16,7 C 17,8 C 77 % 1010,6 hPa 0,0 l/m 0 min 0 min 0 W/m 0,0 km/h (0 Bft) 97,83 %
05.07.2018 01:48 19,5 C 16,7 C 17,8 C 77 % 1010,6 hPa 0,0 l/m 0 min 0 min 0 W/m 0,0 km/h (0 Bft) 97,87 %
05.07.2018 01:50 19,4 C 16,7 C 17,8 C 77 % 1010,6 hPa 0,0 l/m 0 min 0 min 0 W/m 0,0 km/h (0 Bft) 95,74 %
05.07.2018 01:52 19,4 C 16,7 C 17,8 C 77 % 1010,6 hPa 0,0 l/m 0 min 0 min 0 W/m 0,0 km/h (0 Bft) 97,92 %
05.07.2018 01:54 19,4 C 16,7 C 17,8 C 77 % 1010,5 hPa 0,0 l/m 0 min 0 min 0 W/m 0,0 km/h (0 Bft) 97,87 %
05.07.2018 01:56 19,4 C 16,7 C 17,8 C 77 % 1010,4 hPa 0,0 l/m 0 min 0 min 0 W/m 0,0 km/h (0 Bft) 95,65 %
05.07.2018 01:58 19,3 C 16,7 C 17,8 C 77 % 1010,4 hPa 0,0 l/m 0 min 0 min 0 W/m 0,0 km/h (0 Bft) 95,74 %
05.07.2018 02:00 19,3 C 16,7 C 17,8 C 77 % 1010,4 hPa 0,0 l/m 0 min 0 min 0 W/m 0,0 km/h (0 Bft) 93,62 %
05.07.2018 02:02 19,3 C 16,7 C 17,8 C 77 % 1010,4 hPa 0,0 l/m 0 min 0 min 0 W/m 0,0 km/h (0 Bft) 97,87 %
05.07.2018 02:04 19,2 C 16,7 C 17,2 C 77 % 1010,4 hPa 0,0 l/m 0 min 0 min 0 W/m 0,0 km/h (0 Bft) 91,49 %
05.07.2018 02:08 19,2 C 16,7 C 17,2 C 77 % 1010,3 hPa 0,0 l/m 0 min 0 min 0 W/m 0,0 km/h (0 Bft) 96,77 %
05.07.2018 02:10 19,2 C 16,7 C 17,2 C 77 % 1010,3 hPa 0,0 l/m 0 min 0 min 0 W/m 0,0 km/h (0 Bft) 95,74 %
05.07.2018 02:12 19,2 C 16,7 C 17,2 C 77 % 1010,3 hPa 0,0 l/m 0 min 0 min 0 W/m 0,0 km/h (0 Bft) 95,74 %
05.07.2018 02:14 19,1 C 16,7 C 17,2 C 77 % 1010,3 hPa 0,0 l/m 0 min 0 min 0 W/m 0,0 km/h (0 Bft) 95,74 %
05.07.2018 02:16 19,1 C 16,7 C 17,2 C 77 % 1010,4 hPa 0,0 l/m 0 min 0 min 0 W/m 0,0 km/h (0 Bft) 91,49 %
05.07.2018 02:18 19,1 C 16,7 C 17,2 C 77 % 1010,3 hPa 0,0 l/m 0 min 0 min 0 W/m 0,0 km/h (0 Bft) 95,74 %
05.07.2018 02:20 19,1 C 16,7 C 17,2 C 77 % 1010,3 hPa 0,0 l/m 0 min 0 min 0 W/m 0,0 km/h (0 Bft) 97,83 %
05.07.2018 02:22 19,0 C 16,7 C 17,2 C 77 % 1010,3 hPa 0,0 l/m 0 min 0 min 0 W/m 0,0 km/h (0 Bft) 97,87 %
05.07.2018 02:24 19,0 C 16,7 C 17,2 C 77 % 1010,3 hPa 0,0 l/m 0 min 0 min 0 W/m 0,0 km/h (0 Bft) 97,87 %
05.07.2018 02:26 18,9 C 16,7 C 17,2 C 77 % 1010,3 hPa 0,0 l/m 0 min 0 min 0 W/m 0,0 km/h (0 Bft) 97,87 %
05.07.2018 02:28 18,9 C 16,7 C 17,2 C 77 % 1010,3 hPa 0,0 l/m 0 min 0 min 0 W/m 0,0 km/h (0 Bft) 95,74 %
05.07.2018 02:30 18,9 C 16,7 C 17,2 C 77 % 1010,3 hPa 0,0 l/m 0 min 0 min 0 W/m 0,0 km/h (0 Bft) 97,87 %
05.07.2018 02:32 18,9 C 17,2 C 17,2 C 77 % 1010,2 hPa 0,0 l/m 0 min 0 min 0 W/m 0,0 km/h (0 Bft) 97,83 %
05.07.2018 02:34 18,9 C 17,2 C 17,2 C 77 % 1010,2 hPa 0,0 l/m 0 min 0 min 0 W/m 0,0 km/h (0 Bft) 95,74 %
05.07.2018 02:36 18,8 C 17,8 C 17,2 C 77 % 1010,2 hPa 0,0 l/m 0 min 0 min 0 W/m 0,0 km/h (0 Bft) 97,92 %
05.07.2018 02:38 18,8 C 17,8 C 17,2 C 77 % 1010,2 hPa 0,0 l/m 0 min 0 min 0 W/m 0,0 km/h (0 Bft) 100,00 %
05.07.2018 02:40 18,8 C 17,8 C 17,2 C 77 % 1010,3 hPa 0,0 l/m 0 min 0 min 0 W/m 0,0 km/h (0 Bft) 97,87 %
05.07.2018 02:42 18,7 C 17,8 C 17,2 C 77 % 1010,3 hPa 0,0 l/m 0 min 0 min 0 W/m 0,0 km/h (0 Bft) 95,74 %
05.07.2018 02:44 18,7 C 17,8 C 17,2 C 77 % 1010,3 hPa 0,0 l/m 0 min 0 min 0 W/m 0,0 km/h (0 Bft) 97,87 %
05.07.2018 02:46 18,7 C 17,8 C 17,2 C 77 % 1010,3 hPa 0,0 l/m 0 min 0 min 0 W/m 0,0 km/h (0 Bft) 97,83 %
05.07.2018 02:48 18,7 C 18,3 C 17,2 C 77 % 1010,4 hPa 0,0 l/m 0 min 0 min 0 W/m 0,0 km/h (0 Bft) 97,87 %
05.07.2018 02:50 18,7 C 18,3 C 17,2 C 77 % 1010,4 hPa 0,0 l/m 0 min 0 min 0 W/m 0,0 km/h (0 Bft) 100,00 %
05.07.2018 02:52 18,6 C 18,3 C 17,2 C 77 % 1010,4 hPa 0,0 l/m 0 min 0 min 0 W/m 0,0 km/h (0 Bft) 100,00 %
05.07.2018 02:54 18,6 C 18,3 C 17,8 C 77 % 1010,4 hPa 0,0 l/m 0 min 0 min 0 W/m 0,0 km/h (0 Bft) 97,87 %
05.07.2018 02:56 18,6 C 18,3 C 17,8 C 77 % 1010,6 hPa 0,0 l/m 0 min 0 min 0 W/m 0,0 km/h (0 Bft) 100,00 %
05.07.2018 02:58 18,6 C 18,3 C 17,8 C 77 % 1010,6 hPa 0,0 l/m 0 min 0 min 0 W/m 0,0 km/h (0 Bft) 97,87 %
05.07.2018 03:00 18,6 C 18,3 C 17,8 C 77 % 1010,6 hPa 0,0 l/m 0 min 0 min 0 W/m 0,0 km/h (0 Bft) 100,00 %
05.07.2018 03:02 18,6 C 18,3 C 18,3 C 77 % 1010,6 hPa 0,0 l/m 0 min 0 min 0 W/m 0,0 km/h (0 Bft) 100,00 %
05.07.2018 03:04 18,6 C 18,3 C 18,3 C 78 % 1010,5 hPa 0,0 l/m 0 min 0 min 0 W/m 0,0 km/h (0 Bft) 100,00 %
05.07.2018 03:06 18,6 C 18,3 C 18,3 C 78 % 1010,5 hPa 0,0 l/m 0 min 0 min 0 W/m 0,0 km/h (0 Bft) 100,00 %
05.07.2018 03:08 18,6 C 18,3 C 18,3 C 78 % 1010,5 hPa 0,0 l/m 0 min 0 min 0 W/m 0,0 km/h (0 Bft) 100,00 %
05.07.2018 03:10 18,6 C 18,3 C 18,3 C 77 % 1010,5 hPa 0,0 l/m 0 min 0 min 0 W/m 0,0 km/h (0 Bft) 100,00 %
05.07.2018 03:12 18,7 C 18,3 C 17,8 C 78 % 1010,6 hPa 0,0 l/m 0 min 0 min 0 W/m 0,0 km/h (0 Bft) 100,00 %
05.07.2018 03:14 18,7 C 18,3 C 18,3 C 78 % 1010,6 hPa 0,0 l/m 0 min 0 min 0 W/m 0,0 km/h (0 Bft) 100,00 %
05.07.2018 03:16 18,7 C 18,3 C 18,3 C 78 % 1010,6 hPa 0,0 l/m 0 min 0 min 0 W/m 0,0 km/h (0 Bft) 100,00 %
05.07.2018 03:18 18,7 C 18,3 C 17,8 C 78 % 1010,6 hPa 0,0 l/m 0 min 0 min 0 W/m 6,8 km/h (2 Bft) 100,00 %
05.07.2018 03:20 18,7 C 18,3 C 18,3 C 78 % 1010,5 hPa 0,0 l/m 0 min 0 min 0 W/m 4,5 km/h (1 Bft) 100,00 %
05.07.2018 03:22 18,7 C 18,3 C 18,3 C 78 % 1010,5 hPa 0,0 l/m 0 min 0 min 0 W/m 4,5 km/h (1 Bft) 100,00 %
05.07.2018 03:24 18,8 C 18,3 C 17,8 C 78 % 1010,5 hPa 0,0 l/m 0 min 0 min 0 W/m 6,8 km/h (2 Bft) 100,00 %
05.07.2018 03:26 18,8 C 18,3 C 17,8 C 78 % 1010,5 hPa 0,0 l/m 0 min 0 min 0 W/m 4,5 km/h (1 Bft) 100,00 %
05.07.2018 03:28 18,8 C 18,3 C 17,8 C 78 % 1010,5 hPa 0,0 l/m 0 min 0 min 0 W/m 6,8 km/h (2 Bft) 100,00 %
05.07.2018 03:30 18,8 C 18,3 C 17,8 C 78 % 1010,4 hPa 0,0 l/m 0 min 0 min 0 W/m 2,3 km/h (1 Bft) 100,00 %
05.07.2018 03:32 18,8 C 17,8 C 17,8 C 78 % 1010,4 hPa 0,0 l/m 0 min 0 min 0 W/m 4,5 km/h (1 Bft) 100,00 %
05.07.2018 03:34 18,8 C 17,8 C 17,8 C 78 % 1010,4 hPa 0,0 l/m 0 min 0 min 0 W/m 2,3 km/h (1 Bft) 100,00 %
05.07.2018 03:36 18,8 C 17,8 C 17,8 C 78 % 1010,3 hPa 0,0 l/m 0 min 0 min 0 W/m 4,5 km/h (1 Bft) 100,00 %
05.07.2018 03:38 18,8 C 17,8 C 17,8 C 78 % 1010,3 hPa 0,0 l/m 0 min 0 min 0 W/m 6,8 km/h (2 Bft) 100,00 %
05.07.2018 03:40 18,8 C 17,8 C 17,8 C 78 % 1010,4 hPa 0,0 l/m 0 min 0 min 0 W/m 0,0 km/h (0 Bft) 97,87 %
05.07.2018 03:42 18,8 C 17,8 C 17,8 C 78 % 1010,4 hPa 0,0 l/m 0 min 0 min 0 W/m 0,0 km/h (0 Bft) 100,00 %
05.07.2018 03:44 18,8 C 18,3 C 17,8 C 78 % 1010,5 hPa 0,0 l/m 0 min 0 min 0 W/m 2,3 km/h (1 Bft) 97,83 %
05.07.2018 03:46 18,8 C 18,3 C 17,8 C 79 % 1010,5 hPa 0,0 l/m 0 min 0 min 0 W/m 0,0 km/h (0 Bft) 97,87 %
05.07.2018 03:48 18,8 C 18,3 C 17,8 C 79 % 1010,4 hPa 0,0 l/m 0 min 0 min 0 W/m 0,0 km/h (0 Bft) 97,87 %
05.07.2018 03:50 18,8 C 18,3 C 17,8 C 79 % 1010,4 hPa 0,0 l/m 0 min 0 min 0 W/m 0,0 km/h (0 Bft) 95,74 %
05.07.2018 03:52 18,8 C 17,8 C 17,8 C 79 % 1010,6 hPa 0,0 l/m 0 min 0 min 0 W/m 0,0 km/h (0 Bft) 97,87 %
05.07.2018 03:54 18,8 C 17,8 C 17,8 C 79 % 1010,5 hPa 0,0 l/m 0 min 0 min 0 W/m 0,0 km/h (0 Bft) 95,74 %
05.07.2018 03:56 18,8 C 17,8 C 17,8 C 79 % 1010,6 hPa 0,0 l/m 0 min 0 min 0 W/m 0,0 km/h (0 Bft) 97,83 %
05.07.2018 03:58 18,8 C 18,3 C 17,8 C 79 % 1010,7 hPa 0,0 l/m 0 min 0 min 0 W/m 0,0 km/h (0 Bft) 97,87 %
05.07.2018 04:00 18,8 C 18,3 C 17,8 C 79 % 1010,6 hPa 0,0 l/m 0 min 0 min 0 W/m 0,0 km/h (0 Bft) 97,87 %
05.07.2018 04:06 18,8 C 17,8 C 17,8 C 79 % 1010,6 hPa 0,0 l/m 0 min 0 min 0 W/m 0,0 km/h (0 Bft) 100,00 %
05.07.2018 04:11 18,8 C 17,8 C 17,8 C 79 % 1010,4 hPa 0,0 l/m 0 min 0 min 0 W/m 0,0 km/h (0 Bft) 100,00 %
05.07.2018 04:12 18,8 C 17,8 C 17,8 C 79 % 1010,4 hPa 0,0 l/m 0 min 0 min 0 W/m 0,0 km/h (0 Bft) 91,30 %
05.07.2018 04:14 18,8 C 17,8 C 17,8 C 79 % 1010,4 hPa 0,0 l/m 0 min 0 min 0 W/m 6,8 km/h (2 Bft) 93,62 %
05.07.2018 04:16 18,8 C 17,8 C 17,8 C 79 % 1010,4 hPa 0,0 l/m 0 min 0 min 0 W/m 6,8 km/h (2 Bft) 97,87 %
05.07.2018 04:18 18,8 C 17,8 C 17,8 C 79 % 1010,4 hPa 0,0 l/m 0 min 0 min 0 W/m 6,8 km/h (2 Bft) 97,83 %
05.07.2018 04:20 18,8 C 17,8 C 17,8 C 79 % 1010,4 hPa 0,0 l/m 0 min 0 min 0 W/m 6,8 km/h (2 Bft) 97,87 %
05.07.2018 04:22 18,7 C 17,8 C 17,8 C 79 % 1010,3 hPa 0,0 l/m 0 min 0 min 0 W/m 2,3 km/h (1 Bft) 95,74 %
05.07.2018 04:24 18,7 C 17,8 C 17,8 C 79 % 1010,3 hPa 0,0 l/m 0 min 0 min 0 W/m 4,5 km/h (1 Bft) 95,74 %
05.07.2018 04:26 18,7 C 17,8 C 17,8 C 79 % 1010,3 hPa 0,0 l/m 0 min 0 min 0 W/m 0,0 km/h (0 Bft) 97,87 %
05.07.2018 04:28 18,7 C 17,8 C 17,2 C 79 % 1010,3 hPa 0,0 l/m 0 min 0 min 0 W/m 2,3 km/h (1 Bft) 95,74 %
05.07.2018 04:30 18,7 C 17,8 C 17,2 C 79 % 1010,4 hPa 0,0 l/m 0 min 0 min 0 W/m 2,3 km/h (1 Bft) 97,83 %
05.07.2018 04:32 18,7 C 17,8 C 17,2 C 79 % 1010,3 hPa 0,0 l/m 0 min 0 min 0 W/m 0,0 km/h (0 Bft) 93,62 %
05.07.2018 04:34 18,7 C 17,8 C 17,2 C 79 % 1010,4 hPa 0,0 l/m 0 min 0 min 0 W/m 2,3 km/h (1 Bft) 97,87 %
05.07.2018 04:36 18,7 C 17,2 C 17,2 C 79 % 1010,4 hPa 0,0 l/m 0 min 0 min 0 W/m 2,3 km/h (1 Bft) 100,00 %
05.07.2018 04:38 18,7 C 17,2 C 17,2 C 79 % 1010,5 hPa 0,0 l/m 0 min 0 min 0 W/m 2,3 km/h (1 Bft) 100,00 %
05.07.2018 04:40 18,7 C 17,2 C 17,2 C 80 % 1010,5 hPa 0,0 l/m 0 min 0 min 0 W/m 2,3 km/h (1 Bft) 95,74 %
05.07.2018 04:42 18,6 C 17,2 C 17,2 C 80 % 1010,5 hPa 0,0 l/m 0 min 0 min 0 W/m 4,5 km/h (1 Bft) 95,65 %
05.07.2018 04:44 18,6 C 17,2 C 17,2 C 79 % 1010,6 hPa 0,0 l/m 0 min 0 min 0 W/m 4,5 km/h (1 Bft) 97,87 %
05.07.2018 04:46 18,6 C 17,2 C 17,2 C 79 % 1010,5 hPa 0,0 l/m 0 min 0 min 0 W/m 2,3 km/h (1 Bft) 97,87 %
05.07.2018 04:48 18,6 C 17,2 C 17,2 C 79 % 1010,5 hPa 0,0 l/m 0 min 0 min 0 W/m 0,0 km/h (0 Bft) 97,87 %
05.07.2018 04:50 18,6 C 17,2 C 17,2 C 79 % 1010,5 hPa 0,0 l/m 0 min 0 min 0 W/m 0,0 km/h (0 Bft) 97,87 %
05.07.2018 04:52 18,5 C 17,2 C 17,2 C 79 % 1010,5 hPa 0,0 l/m 0 min 0 min 0 W/m 0,0 km/h (0 Bft) 95,74 %
05.07.2018 04:54 18,5 C 17,2 C 17,2 C 80 % 1010,4 hPa 0,0 l/m 0 min 0 min 0 W/m 0,0 km/h (0 Bft) 97,87 %
05.07.2018 04:56 18,5 C 17,2 C 17,2 C 80 % 1010,3 hPa 0,0 l/m 0 min 0 min 0 W/m 2,3 km/h (1 Bft) 97,87 %
05.07.2018 04:58 18,5 C 17,2 C 17,2 C 80 % 1010,3 hPa 0,0 l/m 0 min 0 min 0 W/m 2,3 km/h (1 Bft) 97,87 %
05.07.2018 05:00 18,4 C 17,2 C 17,2 C 80 % 1010,3 hPa 0,0 l/m 0 min 0 min 0 W/m 4,5 km/h (1 Bft) 97,87 %
05.07.2018 05:02 18,4 C 17,2 C 17,2 C 80 % 1010,2 hPa 0,0 l/m 0 min 0 min 0 W/m 2,3 km/h (1 Bft) 95,74 %
05.07.2018 05:04 18,4 C 17,2 C 17,2 C 80 % 1010,3 hPa 0,0 l/m 0 min 0 min 0 W/m 0,0 km/h (0 Bft) 95,65 %
05.07.2018 05:06 18,4 C 17,2 C 17,2 C 80 % 1010,3 hPa 0,0 l/m 0 min 0 min 0 W/m 0,0 km/h (0 Bft) 95,83 %
05.07.2018 05:08 18,4 C 17,2 C 17,2 C 80 % 1010,2 hPa 0,0 l/m 0 min 0 min 0 W/m 0,0 km/h (0 Bft) 95,74 %
05.07.2018 05:10 18,3 C 17,2 C 17,2 C 80 % 1010,3 hPa 0,0 l/m 0 min 0 min 0 W/m 0,0 km/h (0 Bft) 95,74 %
05.07.2018 05:12 18,3 C 17,2 C 17,2 C 80 % 1010,3 hPa 0,0 l/m 0 min 0 min 0 W/m 0,0 km/h (0 Bft) 95,74 %
05.07.2018 05:14 18,3 C 17,2 C 17,2 C 80 % 1010,2 hPa 0,0 l/m 0 min 0 min 0 W/m 4,5 km/h (1 Bft) 91,49 %
05.07.2018 05:16 18,3 C 17,2 C 17,2 C 80 % 1010,3 hPa 0,0 l/m 0 min 0 min 0 W/m 2,3 km/h (1 Bft) 95,65 %
05.07.2018 05:18 18,3 C 17,2 C 17,2 C 80 % 1010,3 hPa 0,0 l/m 0 min 0 min 0 W/m 0,0 km/h (0 Bft) 95,74 %
05.07.2018 05:20 18,3 C 17,2 C 17,2 C 80 % 1010,3 hPa 0,0 l/m 0 min 0 min 0 W/m 0,0 km/h (0 Bft) 95,74 %
05.07.2018 05:22 18,3 C 17,2 C 17,2 C 80 % 1010,3 hPa 0,0 l/m 0 min 0 min 0 W/m 0,0 km/h (0 Bft) 93,62 %
05.07.2018 05:24 18,2 C 17,2 C 17,2 C 80 % 1010,2 hPa 0,0 l/m 0 min 0 min 0 W/m 0,0 km/h (0 Bft) 95,74 %
05.07.2018 05:26 18,2 C 17,2 C 16,7 C 80 % 1010,3 hPa 0,0 l/m 0 min 0 min 3 W/m 0,0 km/h (0 Bft) 97,87 %
05.07.2018 05:28 18,2 C 17,2 C 17,2 C 80 % 1010,3 hPa 0,0 l/m 0 min 0 min 5 W/m 0,0 km/h (0 Bft) 97,83 %
05.07.2018 05:30 18,2 C 17,2 C 17,2 C 80 % 1010,3 hPa 0,0 l/m 0 min 0 min 5 W/m 0,0 km/h (0 Bft) 97,87 %
05.07.2018 05:32 18,2 C 17,2 C 17,2 C 80 % 1010,3 hPa 0,0 l/m 0 min 0 min 5 W/m 0,0 km/h (0 Bft) 95,74 %
05.07.2018 05:34 18,2 C 17,2 C 17,2 C 80 % 1010,3 hPa 0,0 l/m 0 min 0 min 5 W/m 0,0 km/h (0 Bft) 100,00 %
05.07.2018 05:35 18,2 C 17,2 C 17,2 C 80 % 1010,3 hPa 0,0 l/m 0 min 0 min 5 W/m 0,0 km/h (0 Bft) 100,00 %
05.07.2018 05:40 18,1 C 16,7 C 16,7 C 81 % 1010,3 hPa 0,0 l/m 0 min 0 min 7 W/m 4,5 km/h (1 Bft) 100,00 %
05.07.2018 05:42 18,1 C 16,7 C 16,7 C 81 % 1010,3 hPa 0,0 l/m 0 min 0 min 7 W/m 4,5 km/h (1 Bft) 97,87 %
05.07.2018 05:44 18,1 C 16,7 C 16,7 C 81 % 1010,3 hPa 0,0 l/m 0 min 0 min 7 W/m 4,5 km/h (1 Bft) 97,87 %
05.07.2018 05:46 18,1 C 16,7 C 16,7 C 81 % 1010,3 hPa 0,0 l/m 0 min 0 min 9 W/m 2,3 km/h (1 Bft) 97,87 %
05.07.2018 05:48 18,1 C 16,7 C 16,7 C 81 % 1010,3 hPa 0,0 l/m 0 min 0 min 9 W/m 0,0 km/h (0 Bft) 97,87 %
05.07.2018 05:50 18,0 C 16,7 C 16,7 C 81 % 1010,3 hPa 0,0 l/m 0 min 0 min 11 W/m 0,0 km/h (0 Bft) 97,83 %
05.07.2018 05:52 18,0 C 16,7 C 16,7 C 81 % 1010,2 hPa 0,0 l/m 0 min 0 min 11 W/m 0,0 km/h (0 Bft) 97,87 %
05.07.2018 05:54 18,0 C 16,7 C 16,7 C 81 % 1010,2 hPa 0,0 l/m 0 min 0 min 11 W/m 0,0 km/h (0 Bft) 97,87 %
05.07.2018 05:56 17,9 C 16,7 C 16,7 C 81 % 1010,2 hPa 0,0 l/m 0 min 0 min 12 W/m 0,0 km/h (0 Bft) 97,87 %
05.07.2018 05:58 17,9 C 16,7 C 16,7 C 81 % 1010,2 hPa 0,0 l/m 0 min 0 min 12 W/m 0,0 km/h (0 Bft) 97,87 %
05.07.2018 06:00 17,9 C 16,7 C 16,7 C 81 % 1010,2 hPa 0,0 l/m 0 min 0 min 14 W/m 2,3 km/h (1 Bft) 97,87 %
05.07.2018 06:02 17,9 C 16,7 C 16,7 C 81 % 1010,3 hPa 0,0 l/m 0 min 0 min 15 W/m 4,5 km/h (1 Bft) 97,83 %
05.07.2018 06:04 17,9 C 16,7 C 16,7 C 82 % 1010,3 hPa 0,0 l/m 0 min 0 min 17 W/m 0,0 km/h (0 Bft) 95,74 %
05.07.2018 06:07 17,8 C 16,7 C 16,7 C 82 % 1010,3 hPa 0,0 l/m 0 min 0 min 18 W/m 0,0 km/h (0 Bft) 95,74 %
05.07.2018 06:08 17,8 C 16,7 C 16,7 C 82 % 1010,3 hPa 0,0 l/m 0 min 0 min 18 W/m 0,0 km/h (0 Bft) 100,00 %
05.07.2018 06:10 17,8 C 16,7 C 16,7 C 82 % 1010,4 hPa 0,0 l/m 0 min 0 min 19 W/m 0,0 km/h (0 Bft) 97,87 %
05.07.2018 06:12 17,8 C 16,7 C 16,7 C 83 % 1010,5 hPa 0,0 l/m 0 min 0 min 20 W/m 0,0 km/h (0 Bft) 100,00 %
05.07.2018 06:14 17,8 C 16,7 C 16,7 C 83 % 1010,5 hPa 0,0 l/m 0 min 0 min 22 W/m 2,3 km/h (1 Bft) 97,87 %
05.07.2018 06:16 17,8 C 16,7 C 16,7 C 83 % 1010,6 hPa 0,0 l/m 0 min 0 min 24 W/m 0,0 km/h (0 Bft) 100,00 %
05.07.2018 06:18 17,7 C 16,7 C 16,7 C 83 % 1010,5 hPa 0,0 l/m 0 min 0 min 25 W/m 0,0 km/h (0 Bft) 100,00 %
05.07.2018 06:20 17,7 C 16,7 C 16,7 C 83 % 1010,5 hPa 0,0 l/m 0 min 0 min 26 W/m 0,0 km/h (0 Bft) 97,87 %
05.07.2018 06:22 17,7 C 17,2 C 16,7 C 83 % 1010,6 hPa 0,0 l/m 0 min 0 min 28 W/m 0,0 km/h (0 Bft) 100,00 %
05.07.2018 06:24 17,7 C 17,2 C 16,7 C 83 % 1010,6 hPa 0,0 l/m 0 min 0 min 29 W/m 0,0 km/h (0 Bft) 100,00 %
05.07.2018 06:26 17,7 C 17,2 C 16,7 C 83 % 1010,6 hPa 0,0 l/m 0 min 0 min 30 W/m 0,0 km/h (0 Bft) 97,87 %
05.07.2018 06:28 17,7 C 17,2 C 17,2 C 83 % 1010,6 hPa 0,0 l/m 0 min 0 min 32 W/m 2,3 km/h (1 Bft) 100,00 %
05.07.2018 06:30 17,7 C 17,2 C 17,2 C 83 % 1010,5 hPa 0,0 l/m 0 min 0 min 35 W/m 0,0 km/h (0 Bft) 95,74 %
05.07.2018 06:32 17,7 C 17,2 C 17,2 C 83 % 1010,5 hPa 0,0 l/m 0 min 0 min 38 W/m 0,0 km/h (0 Bft) 97,87 %
05.07.2018 06:34 17,7 C 17,2 C 17,2 C 84 % 1010,6 hPa 0,0 l/m 0 min 0 min 41 W/m 2,3 km/h (1 Bft) 100,00 %
05.07.2018 06:36 17,7 C 17,2 C 17,2 C 84 % 1010,6 hPa 0,0 l/m 0 min 0 min 45 W/m 2,3 km/h (1 Bft) 100,00 %
05.07.2018 06:38 17,7 C 17,8 C 17,2 C 84 % 1010,6 hPa 0,0 l/m 0 min 0 min 49 W/m 2,3 km/h (1 Bft) 97,87 %
05.07.2018 06:40 17,7 C 17,8 C 17,2 C 84 % 1010,6 hPa 0,0 l/m 0 min 0 min 47 W/m 0,0 km/h (0 Bft) 95,74 %
05.07.2018 06:42 17,7 C 17,8 C 17,2 C 84 % 1010,6 hPa 0,0 l/m 0 min 0 min 46 W/m 0,0 km/h (0 Bft) 97,87 %
05.07.2018 06:44 17,7 C 17,8 C 17,2 C 84 % 1010,5 hPa 0,0 l/m 0 min 0 min 44 W/m 2,3 km/h (1 Bft) 97,87 %
05.07.2018 06:46 17,8 C 17,8 C 17,2 C 84 % 1010,6 hPa 0,0 l/m 0 min 0 min 44 W/m 4,5 km/h (1 Bft) 97,83 %
05.07.2018 06:48 17,8 C 17,8 C 17,2 C 84 % 1010,6 hPa 0,0 l/m 0 min 0 min 44 W/m 4,5 km/h (1 Bft) 97,87 %
05.07.2018 06:50 17,8 C 17,8 C 17,2 C 84 % 1010,6 hPa 0,0 l/m 0 min 0 min 44 W/m 4,5 km/h (1 Bft) 95,74 %
05.07.2018 06:52 17,8 C 17,8 C 17,2 C 84 % 1010,5 hPa 0,0 l/m 0 min 0 min 41 W/m 2,3 km/h (1 Bft) 97,87 %
05.07.2018 06:54 17,9 C 17,8 C 17,2 C 84 % 1010,5 hPa 0,0 l/m 0 min 0 min 40 W/m 0,0 km/h (0 Bft) 97,87 %
05.07.2018 06:56 17,9 C 17,8 C 17,2 C 84 % 1010,6 hPa 0,0 l/m 0 min 0 min 40 W/m 0,0 km/h (0 Bft) 95,74 %
05.07.2018 06:58 17,9 C 17,8 C 17,2 C 84 % 1010,6 hPa 0,0 l/m 0 min 0 min 41 W/m 4,5 km/h (1 Bft) 97,83 %
05.07.2018 07:00 17,9 C 17,8 C 17,2 C 84 % 1010,6 hPa 0,0 l/m 0 min 0 min 43 W/m 4,5 km/h (1 Bft) 97,87 %
05.07.2018 07:02 17,9 C 17,8 C 17,2 C 84 % 1010,5 hPa 0,0 l/m 0 min 0 min 46 W/m 2,3 km/h (1 Bft) 88,57 %
05.07.2018 07:04 18,0 C 17,8 C 17,2 C 84 % 1010,5 hPa 0,0 l/m 0 min 0 min 46 W/m 4,5 km/h (1 Bft) 97,87 %
05.07.2018 07:06 18,0 C 17,8 C 17,2 C 84 % 1010,5 hPa 0,0 l/m 0 min 0 min 46 W/m 4,5 km/h (1 Bft) 97,87 %
05.07.2018 07:08 18,1 C 17,8 C 17,2 C 84 % 1010,5 hPa 0,0 l/m 0 min 0 min 46 W/m 2,3 km/h (1 Bft) 95,74 %
05.07.2018 07:10 18,1 C 17,8 C 17,2 C 84 % 1010,5 hPa 0,0 l/m 0 min 0 min 46 W/m 2,3 km/h (1 Bft) 95,74 %
05.07.2018 07:12 18,1 C 17,8 C 17,2 C 84 % 1010,6 hPa 0,0 l/m 0 min 0 min 44 W/m 2,3 km/h (1 Bft) 95,74 %
05.07.2018 07:14 18,1 C 17,8 C 17,2 C 84 % 1010,6 hPa 0,0 l/m 0 min 0 min 38 W/m 9,0 km/h (2 Bft) 93,48 %
05.07.2018 07:16 18,1 C 17,8 C 17,2 C 84 % 1010,5 hPa 0,0 l/m 0 min 0 min 34 W/m 6,8 km/h (2 Bft) 97,87 %
05.07.2018 07:18 18,2 C 17,8 C 17,2 C 84 % 1010,5 hPa 0,0 l/m 0 min 0 min 32 W/m 4,5 km/h (1 Bft) 95,74 %
05.07.2018 07:20 18,2 C 17,8 C 17,2 C 84 % 1010,6 hPa 0,0 l/m 0 min 0 min 29 W/m 6,8 km/h (2 Bft) 93,62 %
05.07.2018 07:22 18,2 C 17,8 C 17,2 C 84 % 1010,7 hPa 0,0 l/m 0 min 0 min 26 W/m 6,8 km/h (2 Bft) 94,34 %
05.07.2018 07:24 18,2 C 17,8 C 17,2 C 84 % 1010,7 hPa 0,0 l/m 0 min 0 min 25 W/m 4,5 km/h (1 Bft) 97,83 %
05.07.2018 07:26 18,2 C 17,8 C 17,2 C 84 % 1010,7 hPa 0,0 l/m 0 min 0 min 24 W/m 9,0 km/h (2 Bft) 95,74 %
05.07.2018 07:28 18,2 C 17,8 C 17,2 C 84 % 1010,6 hPa 0,0 l/m 0 min 2 min 24 W/m 4,5 km/h (1 Bft) 95,74 %
05.07.2018 07:30 18,2 C 17,8 C 17,2 C 84 % 1010,6 hPa 0,0 l/m 0 min 2 min 25 W/m 4,5 km/h (1 Bft) 97,87 %
05.07.2018 07:32 18,2 C 17,8 C 17,2 C 85 % 1010,6 hPa 0,0 l/m 0 min 0 min 28 W/m 2,3 km/h (1 Bft) 95,92 %
05.07.2018 07:34 18,2 C 17,8 C 17,2 C 85 % 1010,6 hPa 0,0 l/m 0 min 2 min 31 W/m 2,3 km/h (1 Bft) 97,87 %
05.07.2018 07:36 18,2 C 17,8 C 17,2 C 84 % 1010,7 hPa 0,0 l/m 0 min 2 min 33 W/m 2,3 km/h (1 Bft) 97,83 %
05.07.2018 07:38 18,2 C 17,8 C 17,2 C 84 % 1010,8 hPa 0,0 l/m 0 min 2 min 36 W/m 2,3 km/h (1 Bft) 95,74 %
05.07.2018 07:40 18,2 C 17,8 C 17,2 C 84 % 1010,9 hPa 0,0 l/m 0 min 0 min 39 W/m 0,0 km/h (0 Bft) 93,62 %
05.07.2018 07:42 18,2 C 17,8 C 17,2 C 84 % 1010,9 hPa 0,0 l/m 0 min 0 min 38 W/m 0,0 km/h (0 Bft) 97,87 %
05.07.2018 07:44 18,3 C 17,8 C 17,2 C 85 % 1011,0 hPa 0,0 l/m 0 min 0 min 36 W/m 0,0 km/h (0 Bft) 97,87 %
05.07.2018 07:46 18,3 C 17,8 C 17,2 C 85 % 1011,0 hPa 0,0 l/m 0 min 0 min 35 W/m 2,3 km/h (1 Bft) 97,87 %
05.07.2018 07:48 18,3 C 17,8 C 17,2 C 85 % 1010,9 hPa 0,0 l/m 0 min 0 min 35 W/m 0,0 km/h (0 Bft) 95,65 %
05.07.2018 07:50 18,3 C 17,8 C 17,2 C 84 % 1011,0 hPa 0,0 l/m 0 min 0 min 34 W/m 0,0 km/h (0 Bft) 97,87 %
05.07.2018 07:52 18,3 C 17,8 C 17,2 C 85 % 1011,0 hPa 0,0 l/m 0 min 0 min 35 W/m 0,0 km/h (0 Bft) 97,87 %
05.07.2018 07:54 18,3 C 17,8 C 17,2 C 85 % 1011,0 hPa 0,0 l/m 0 min 0 min 38 W/m 4,5 km/h (1 Bft) 97,87 %
05.07.2018 07:56 18,3 C 17,8 C 17,2 C 85 % 1011,0 hPa 0,0 l/m 0 min 0 min 40 W/m 4,5 km/h (1 Bft) 97,87 %
05.07.2018 07:58 18,3 C 17,8 C 17,2 C 85 % 1011,0 hPa 0,0 l/m 0 min 0 min 45 W/m 4,5 km/h (1 Bft) 97,83 %
05.07.2018 08:00 18,3 C 17,8 C 17,2 C 85 % 1011,0 hPa 0,0 l/m 0 min 0 min 47 W/m 2,3 km/h (1 Bft) 95,74 %
05.07.2018 08:02 18,3 C 17,8 C 17,2 C 85 % 1011,0 hPa 0,0 l/m 0 min 0 min 51 W/m 2,3 km/h (1 Bft) 97,87 %
05.07.2018 08:04 18,3 C 17,8 C 17,2 C 85 % 1011,0 hPa 0,0 l/m 0 min 2 min 54 W/m 0,0 km/h (0 Bft) 97,87 %
05.07.2018 08:06 18,3 C 17,8 C 17,2 C 85 % 1010,9 hPa 0,0 l/m 0 min 0 min 60 W/m 0,0 km/h (0 Bft) 97,87 %
05.07.2018 08:08 18,3 C 18,3 C 17,2 C 85 % 1010,9 hPa 0,0 l/m 0 min 0 min 64 W/m 6,8 km/h (2 Bft) 97,87 %
05.07.2018 08:10 18,3 C 18,3 C 17,2 C 85 % 1010,9 hPa 0,0 l/m 0 min 0 min 68 W/m 4,5 km/h (1 Bft) 100,00 %
05.07.2018 08:12 18,3 C 18,3 C 17,2 C 85 % 1010,9 hPa 0,0 l/m 0 min 0 min 69 W/m 0,0 km/h (0 Bft) 100,00 %
05.07.2018 08:14 18,3 C 18,3 C 17,2 C 85 % 1010,9 hPa 0,0 l/m 0 min 0 min 68 W/m 0,0 km/h (0 Bft) 100,00 %
05.07.2018 08:16 18,3 C 18,3 C 17,2 C 85 % 1010,9 hPa 0,0 l/m 0 min 0 min 68 W/m 6,8 km/h (2 Bft) 100,00 %
05.07.2018 08:18 18,3 C 18,3 C 17,8 C 85 % 1010,9 hPa 0,0 l/m 0 min 0 min 70 W/m 4,5 km/h (1 Bft) 100,00 %
05.07.2018 08:20 18,3 C 18,3 C 17,8 C 85 % 1011,0 hPa 0,0 l/m 0 min 0 min 76 W/m 6,8 km/h (2 Bft) 100,00 %
05.07.2018 08:22 18,3 C 18,3 C 17,8 C 85 % 1010,9 hPa 0,0 l/m 0 min 0 min 86 W/m 11,3 km/h (2 Bft) 100,00 %
05.07.2018 08:24 18,4 C 18,3 C 17,8 C 85 % 1011,0 hPa 0,0 l/m 0 min 0 min 98 W/m 13,5 km/h (3 Bft) 97,87 %
05.07.2018 08:26 18,4 C 18,3 C 17,8 C 85 % 1011,0 hPa 0,0 l/m 0 min 0 min 108 W/m 4,5 km/h (1 Bft) 100,00 %
05.07.2018 08:28 18,4 C 18,3 C 17,8 C 85 % 1010,9 hPa 0,0 l/m 0 min 0 min 113 W/m 6,8 km/h (2 Bft) 97,87 %
05.07.2018 08:30 18,4 C 18,9 C 17,8 C 85 % 1010,9 hPa 0,0 l/m 0 min 0 min 116 W/m 6,8 km/h (2 Bft) 100,00 %
05.07.2018 08:32 18,4 C 18,9 C 17,8 C 85 % 1010,9 hPa 0,0 l/m 0 min 0 min 134 W/m 6,8 km/h (2 Bft) 100,00 %
05.07.2018 08:34 18,5 C 18,9 C 17,8 C 85 % 1010,8 hPa 0,0 l/m 0 min 0 min 143 W/m 6,8 km/h (2 Bft) 100,00 %
05.07.2018 08:36 18,5 C 18,9 C 17,8 C 85 % 1010,9 hPa 0,0 l/m 0 min 0 min 154 W/m 9,0 km/h (2 Bft) 97,87 %
05.07.2018 08:38 18,5 C 18,9 C 17,8 C 85 % 1010,9 hPa 0,0 l/m 0 min 0 min 173 W/m 6,8 km/h (2 Bft) 100,00 %
05.07.2018 08:40 18,6 C 19,4 C 17,8 C 85 % 1011,0 hPa 0,0 l/m 0 min 0 min 195 W/m 4,5 km/h (1 Bft) 97,87 %
05.07.2018 08:42 18,6 C 19,4 C 17,8 C 85 % 1011,1 hPa 0,0 l/m 2 min 0 min 248 W/m 4,5 km/h (1 Bft) 100,00 %
05.07.2018 08:44 18,6 C 20,0 C 17,8 C 85 % 1011,0 hPa 0,0 l/m 2 min 0 min 310 W/m 6,8 km/h (2 Bft) 100,00 %
05.07.2018 08:46 18,7 C 20,0 C 18,3 C 85 % 1011,0 hPa 0,0 l/m 2 min 0 min 348 W/m 4,5 km/h (1 Bft) 97,83 %
05.07.2018 08:48 18,7 C 20,6 C 18,3 C 85 % 1011,0 hPa 0,0 l/m 2 min 0 min 353 W/m 9,0 km/h (2 Bft) 97,62 %
05.07.2018 08:50 18,8 C 20,6 C 18,3 C 85 % 1011,0 hPa 0,0 l/m 2 min 0 min 280 W/m 6,8 km/h (2 Bft) 95,74 %
05.07.2018 08:52 18,8 C 20,6 C 18,3 C 85 % 1011,0 hPa 0,0 l/m 2 min 0 min 247 W/m 11,3 km/h (2 Bft) 96,23 %
05.07.2018 08:54 18,9 C 20,6 C 18,3 C 85 % 1011,0 hPa 0,0 l/m 2 min 0 min 256 W/m 6,8 km/h (2 Bft) 97,87 %
05.07.2018 08:56 18,9 C 20,6 C 18,3 C 85 % 1011,1 hPa 0,0 l/m 2 min 0 min 304 W/m 6,8 km/h (2 Bft) 95,74 %
05.07.2018 08:58 19,0 C 20,6 C 18,3 C 85 % 1011,1 hPa 0,0 l/m 2 min 0 min 254 W/m 6,8 km/h (2 Bft) 97,83 %
05.07.2018 09:00 19,1 C 20,6 C 18,3 C 85 % 1011,1 hPa 0,0 l/m 0 min 0 min 224 W/m 6,8 km/h (2 Bft) 97,87 %
05.07.2018 09:02 19,1 C 20,6 C 18,3 C 85 % 1011,1 hPa 0,0 l/m 0 min 0 min 216 W/m 11,3 km/h (2 Bft) 97,87 %
05.07.2018 09:04 19,2 C 20,6 C 18,3 C 85 % 1011,1 hPa 0,0 l/m 0 min 0 min 203 W/m 6,8 km/h (2 Bft) 97,87 %
05.07.2018 09:06 19,2 C 20,6 C 18,3 C 85 % 1011,1 hPa 0,0 l/m 0 min 0 min 199 W/m 6,8 km/h (2 Bft) 97,92 %
05.07.2018 09:08 19,3 C 20,6 C 18,3 C 85 % 1011,1 hPa 0,0 l/m 0 min 0 min 207 W/m 6,8 km/h (2 Bft) 95,65 %
05.07.2018 09:10 19,3 C 20,6 C 18,9 C 84 % 1011,2 hPa 0,0 l/m 0 min 0 min 215 W/m 6,8 km/h (2 Bft) 97,87 %
05.07.2018 09:12 19,4 C 21,1 C 18,3 C 84 % 1011,3 hPa 0,0 l/m 0 min 0 min 220 W/m 9,0 km/h (2 Bft) 97,87 %
05.07.2018 09:14 19,4 C 20,6 C 18,3 C 84 % 1011,3 hPa 0,0 l/m 0 min 0 min 221 W/m 9,0 km/h (2 Bft) 97,87 %
05.07.2018 09:16 19,5 C 20,6 C 18,9 C 84 % 1011,3 hPa 0,0 l/m 0 min 0 min 221 W/m 9,0 km/h (2 Bft) 97,87 %
05.07.2018 09:18 19,5 C 21,1 C 18,9 C 84 % 1011,3 hPa 0,0 l/m 0 min 0 min 222 W/m 4,5 km/h (1 Bft) 97,87 %
05.07.2018 09:20 19,6 C 21,1 C 18,9 C 84 % 1011,3 hPa 0,0 l/m 0 min 0 min 233 W/m 6,8 km/h (2 Bft) 95,65 %
05.07.2018 09:22 19,7 C 21,1 C 18,9 C 84 % 1011,3 hPa 0,0 l/m 0 min 0 min 246 W/m 6,8 km/h (2 Bft) 95,74 %
05.07.2018 09:24 19,7 C 21,1 C 18,9 C 84 % 1011,3 hPa 0,0 l/m 0 min 0 min 257 W/m 9,0 km/h (2 Bft) 95,74 %
05.07.2018 09:26 19,7 C 21,1 C 18,9 C 84 % 1011,3 hPa 0,0 l/m 2 min 0 min 270 W/m 6,8 km/h (2 Bft) 95,74 %
05.07.2018 09:28 19,8 C 21,1 C 18,9 C 84 % 1011,3 hPa 0,0 l/m 2 min 0 min 275 W/m 9,0 km/h (2 Bft) 95,74 %
05.07.2018 09:30 19,8 C 21,7 C 18,9 C 83 % 1011,4 hPa 0,0 l/m 2 min 0 min 330 W/m 6,8 km/h (2 Bft) 95,74 %
05.07.2018 09:32 19,9 C 21,7 C 18,9 C 83 % 1011,3 hPa 0,0 l/m 2 min 0 min 452 W/m 6,8 km/h (2 Bft) 95,65 %
05.07.2018 09:34 19,9 C 22,2 C 19,4 C 83 % 1011,3 hPa 0,0 l/m 2 min 0 min 490 W/m 6,8 km/h (2 Bft) 93,62 %
05.07.2018 09:36 20,0 C 22,2 C 19,4 C 83 % 1011,3 hPa 0,0 l/m 2 min 0 min 504 W/m 6,8 km/h (2 Bft) 93,62 %
05.07.2018 09:38 20,1 C 22,2 C 19,4 C 83 % 1011,3 hPa 0,0 l/m 2 min 0 min 500 W/m 9,0 km/h (2 Bft) 97,87 %
05.07.2018 09:40 20,2 C 22,8 C 19,4 C 83 % 1011,3 hPa 0,0 l/m 2 min 0 min 475 W/m 11,3 km/h (2 Bft) 97,87 %
05.07.2018 09:42 20,3 C 22,8 C 19,4 C 82 % 1011,4 hPa 0,0 l/m 2 min 0 min 463 W/m 11,3 km/h (2 Bft) 95,74 %
05.07.2018 09:44 20,3 C 22,8 C 20,0 C 82 % 1011,4 hPa 0,0 l/m 2 min 0 min 490 W/m 9,0 km/h (2 Bft) 95,65 %
05.07.2018 09:46 20,4 C 22,8 C 20,0 C 82 % 1011,4 hPa 0,0 l/m 2 min 0 min 508 W/m 9,0 km/h (2 Bft) 97,87 %
05.07.2018 09:48 20,5 C 23,3 C 20,0 C 82 % 1011,4 hPa 0,0 l/m 2 min 0 min 503 W/m 9,0 km/h (2 Bft) 97,62 %
05.07.2018 09:50 20,6 C 23,3 C 20,0 C 82 % 1011,3 hPa 0,0 l/m 2 min 0 min 512 W/m 6,8 km/h (2 Bft) 97,87 %
05.07.2018 09:52 20,7 C 23,3 C 20,0 C 81 % 1011,4 hPa 0,0 l/m 2 min 0 min 510 W/m 6,8 km/h (2 Bft) 97,87 %
05.07.2018 09:54 20,8 C 23,3 C 20,0 C 81 % 1011,4 hPa 0,0 l/m 2 min 0 min 511 W/m 11,3 km/h (2 Bft) 93,62 %
05.07.2018 09:56 20,8 C 23,3 C 20,0 C 81 % 1011,4 hPa 0,0 l/m 2 min 0 min 527 W/m 6,8 km/h (2 Bft) 97,83 %
05.07.2018 09:58 20,9 C 23,3 C 20,0 C 81 % 1011,4 hPa 0,0 l/m 2 min 0 min 544 W/m 6,8 km/h (2 Bft) 95,74 %
05.07.2018 10:00 21,0 C 23,9 C 20,0 C 80 % 1011,4 hPa 0,0 l/m 2 min 0 min 549 W/m 9,0 km/h (2 Bft) 100,00 %
05.07.2018 10:02 21,1 C 24,4 C 20,6 C 80 % 1011,4 hPa 0,0 l/m 2 min 0 min 534 W/m 9,0 km/h (2 Bft) 95,74 %
05.07.2018 10:04 21,2 C 24,4 C 20,6 C 79 % 1011,4 hPa 0,0 l/m 2 min 0 min 545 W/m 11,3 km/h (2 Bft) 95,74 %
05.07.2018 10:06 21,3 C 24,4 C 20,6 C 79 % 1011,5 hPa 0,0 l/m 2 min 0 min 557 W/m 9,0 km/h (2 Bft) 100,00 %
05.07.2018 10:08 21,4 C 24,4 C 20,6 C 79 % 1011,4 hPa 0,0 l/m 2 min 0 min 557 W/m 4,5 km/h (1 Bft) 97,83 %
05.07.2018 10:10 21,5 C 23,9 C 20,6 C 78 % 1011,3 hPa 0,0 l/m 2 min 0 min 547 W/m 9,0 km/h (2 Bft) 97,87 %
05.07.2018 10:12 21,6 C 24,4 C 20,6 C 77 % 1011,4 hPa 0,0 l/m 2 min 0 min 526 W/m 9,0 km/h (2 Bft) 97,87 %
05.07.2018 10:14 21,6 C 23,9 C 20,6 C 77 % 1011,4 hPa 0,0 l/m 2 min 0 min 513 W/m 9,0 km/h (2 Bft) 97,87 %
05.07.2018 10:16 21,7 C 23,9 C 20,6 C 77 % 1011,4 hPa 0,0 l/m 2 min 0 min 512 W/m 11,3 km/h (2 Bft) 100,00 %
05.07.2018 10:18 21,7 C 23,9 C 20,6 C 77 % 1011,4 hPa 0,0 l/m 2 min 0 min 535 W/m 9,0 km/h (2 Bft) 100,00 %
05.07.2018 10:20 21,8 C 23,9 C 20,6 C 76 % 1011,3 hPa 0,0 l/m 2 min 0 min 547 W/m 6,8 km/h (2 Bft) 100,00 %
05.07.2018 10:22 21,9 C 23,9 C 20,6 C 76 % 1011,3 hPa 0,0 l/m 2 min 0 min 556 W/m 4,5 km/h (1 Bft) 96,23 %
05.07.2018 10:24 21,9 C 23,9 C 21,1 C 74 % 1011,3 hPa 0,0 l/m 2 min 0 min 554 W/m 6,8 km/h (2 Bft) 95,74 %
05.07.2018 10:26 22,0 C 24,4 C 21,1 C 74 % 1011,3 hPa 0,0 l/m 2 min 0 min 542 W/m 9,0 km/h (2 Bft) 97,87 %
05.07.2018 10:28 22,1 C 24,4 C 21,1 C 74 % 1011,3 hPa 0,0 l/m 2 min 0 min 542 W/m 9,0 km/h (2 Bft) 97,87 %
05.07.2018 10:30 22,1 C 24,4 C 21,1 C 73 % 1011,2 hPa 0,0 l/m 2 min 0 min 569 W/m 9,0 km/h (2 Bft) 97,83 %
05.07.2018 10:32 22,2 C 24,4 C 21,1 C 73 % 1011,3 hPa 0,0 l/m 2 min 0 min 580 W/m 6,8 km/h (2 Bft) 97,96 %
05.07.2018 10:34 22,3 C 25,0 C 21,1 C 74 % 1011,3 hPa 0,0 l/m 2 min 0 min 584 W/m 11,3 km/h (2 Bft) 97,87 %
05.07.2018 10:36 22,3 C 24,4 C 21,1 C 73 % 1011,3 hPa 0,0 l/m 2 min 0 min 592 W/m 11,3 km/h (2 Bft) 94,74 %
05.07.2018 10:38 22,4 C 25,0 C 21,1 C 72 % 1011,2 hPa 0,0 l/m 2 min 0 min 588 W/m 4,5 km/h (1 Bft) 97,87 %
05.07.2018 10:40 22,4 C 25,0 C 21,1 C 73 % 1011,2 hPa 0,0 l/m 2 min 0 min 598 W/m 11,3 km/h (2 Bft) 97,87 %
05.07.2018 10:42 22,5 C 25,0 C 21,1 C 72 % 1011,3 hPa 0,0 l/m 2 min 0 min 599 W/m 9,0 km/h (2 Bft) 97,87 %
05.07.2018 10:44 22,6 C 25,0 C 21,1 C 72 % 1011,2 hPa 0,0 l/m 2 min 0 min 599 W/m 11,3 km/h (2 Bft) 97,83 %
05.07.2018 10:46 22,7 C 25,0 C 21,1 C 71 % 1011,2 hPa 0,0 l/m 2 min 0 min 590 W/m 11,3 km/h (2 Bft) 95,74 %
05.07.2018 10:48 22,7 C 25,6 C 21,1 C 71 % 1011,1 hPa 0,0 l/m 2 min 0 min 567 W/m 4,5 km/h (1 Bft) 95,74 %
05.07.2018 10:50 22,8 C 25,6 C 21,1 C 71 % 1011,1 hPa 0,0 l/m 2 min 0 min 591 W/m 9,0 km/h (2 Bft) 97,87 %
05.07.2018 10:52 22,9 C 26,1 C 21,7 C 71 % 1011,2 hPa 0,0 l/m 2 min 0 min 599 W/m 9,0 km/h (2 Bft) 97,92 %
05.07.2018 10:54 23,0 C 26,7 C 21,7 C 71 % 1011,2 hPa 0,0 l/m 2 min 0 min 572 W/m 9,0 km/h (2 Bft) 97,83 %
05.07.2018 10:56 23,1 C 26,7 C 21,7 C 71 % 1011,2 hPa 0,0 l/m 2 min 0 min 589 W/m 11,3 km/h (2 Bft) 97,87 %
05.07.2018 10:58 23,2 C 27,8 C 21,7 C 71 % 1011,2 hPa 0,0 l/m 2 min 0 min 598 W/m 6,8 km/h (2 Bft) 97,87 %
05.07.2018 11:00 23,2 C 28,9 C 21,7 C 71 % 1011,2 hPa 0,0 l/m 2 min 0 min 619 W/m 9,0 km/h (2 Bft) 95,74 %
05.07.2018 11:02 23,3 C 28,3 C 21,7 C 70 % 1011,2 hPa 0,0 l/m 2 min 0 min 611 W/m 11,3 km/h (2 Bft) 97,87 %
05.07.2018 11:04 23,4 C 28,9 C 21,7 C 69 % 1011,2 hPa 0,0 l/m 2 min 0 min 585 W/m 9,0 km/h (2 Bft) 97,87 %
05.07.2018 11:06 23,4 C 28,9 C 21,7 C 69 % 1011,3 hPa 0,0 l/m 2 min 0 min 577 W/m 13,5 km/h (3 Bft) 97,83 %
05.07.2018 11:08 23,6 C 28,3 C 21,7 C 67 % 1011,3 hPa 0,0 l/m 2 min 0 min 582 W/m 11,3 km/h (2 Bft) 97,87 %
05.07.2018 11:10 23,6 C 27,8 C 22,2 C 65 % 1011,3 hPa 0,0 l/m 2 min 0 min 571 W/m 6,8 km/h (2 Bft) 97,87 %
05.07.2018 11:12 23,7 C 28,3 C 22,2 C 66 % 1011,2 hPa 0,0 l/m 2 min 0 min 610 W/m 9,0 km/h (2 Bft) 95,74 %
05.07.2018 11:14 23,8 C 28,3 C 22,2 C 66 % 1011,2 hPa 0,0 l/m 2 min 0 min 658 W/m 11,3 km/h (2 Bft) 95,74 %
05.07.2018 11:16 23,9 C 28,9 C 22,2 C 66 % 1011,2 hPa 0,0 l/m 2 min 0 min 709 W/m 6,8 km/h (2 Bft) 97,87 %
05.07.2018 11:18 24,0 C 29,4 C 22,8 C 66 % 1011,3 hPa 0,0 l/m 2 min 0 min 688 W/m 9,0 km/h (2 Bft) 100,00 %
05.07.2018 11:20 24,1 C 29,4 C 22,8 C 66 % 1011,2 hPa 0,0 l/m 2 min 0 min 605 W/m 9,0 km/h (2 Bft) 100,00 %
05.07.2018 11:22 24,2 C 28,9 C 22,8 C 64 % 1011,2 hPa 0,0 l/m 2 min 0 min 507 W/m 9,0 km/h (2 Bft) 100,00 %
05.07.2018 11:24 24,3 C 28,3 C 22,2 C 64 % 1011,2 hPa 0,0 l/m 2 min 0 min 509 W/m 9,0 km/h (2 Bft) 100,00 %
05.07.2018 11:26 24,3 C 28,9 C 22,2 C 64 % 1011,3 hPa 0,0 l/m 2 min 0 min 563 W/m 11,3 km/h (2 Bft) 100,00 %
05.07.2018 11:28 24,4 C 28,3 C 22,2 C 64 % 1011,3 hPa 0,0 l/m 2 min 0 min 536 W/m 6,8 km/h (2 Bft) 100,00 %
05.07.2018 11:30 24,4 C 27,8 C 22,2 C 63 % 1011,3 hPa 0,0 l/m 2 min 0 min 484 W/m 4,5 km/h (1 Bft) 97,87 %
05.07.2018 11:32 24,4 C 27,8 C 22,2 C 64 % 1011,3 hPa 0,0 l/m 2 min 0 min 484 W/m 9,0 km/h (2 Bft) 100,00 %
05.07.2018 11:34 24,5 C 28,9 C 22,2 C 64 % 1011,3 hPa 0,0 l/m 2 min 0 min 580 W/m 9,0 km/h (2 Bft) 100,00 %
05.07.2018 11:36 24,6 C 28,3 C 22,8 C 64 % 1011,3 hPa 0,0 l/m 2 min 0 min 549 W/m 9,0 km/h (2 Bft) 100,00 %
05.07.2018 11:38 24,6 C 27,8 C 22,8 C 62 % 1011,3 hPa 0,0 l/m 2 min 0 min 459 W/m 11,3 km/h (2 Bft) 100,00 %
05.07.2018 11:40 24,6 C 28,9 C 22,8 C 62 % 1011,3 hPa 0,0 l/m 2 min 0 min 499 W/m 11,3 km/h (2 Bft) 100,00 %
05.07.2018 11:42 24,7 C 30,0 C 22,8 C 62 % 1011,3 hPa 0,0 l/m 2 min 0 min 741 W/m 9,0 km/h (2 Bft) 100,00 %
05.07.2018 11:44 24,7 C 29,4 C 22,8 C 62 % 1011,3 hPa 0,0 l/m 2 min 0 min 645 W/m 6,8 km/h (2 Bft) 100,00 %
05.07.2018 11:46 24,8 C 29,4 C 22,8 C 62 % 1011,4 hPa 0,0 l/m 2 min 0 min 395 W/m 6,8 km/h (2 Bft) 100,00 %
05.07.2018 11:48 24,8 C 28,9 C 22,8 C 62 % 1011,4 hPa 0,0 l/m 2 min 0 min 533 W/m 13,5 km/h (3 Bft) 100,00 %
05.07.2018 11:50 24,9 C 30,0 C 22,8 C 62 % 1011,4 hPa 0,0 l/m 2 min 0 min 706 W/m 11,3 km/h (2 Bft) 97,87 %
05.07.2018 11:52 25,0 C 30,6 C 22,8 C 62 % 1011,4 hPa 0,0 l/m 2 min 0 min 724 W/m 15,8 km/h (3 Bft) 93,48 %
05.07.2018 11:54 25,1 C 30,6 C 22,8 C 62 % 1011,3 hPa 0,0 l/m 2 min 0 min 710 W/m 6,8 km/h (2 Bft) 95,74 %
05.07.2018 11:56 25,1 C 31,1 C 22,8 C 62 % 1011,4 hPa 0,0 l/m 2 min 0 min 664 W/m 11,3 km/h (2 Bft) 95,74 %
05.07.2018 11:58 25,1 C 31,1 C 22,8 C 62 % 1011,3 hPa 0,0 l/m 2 min 0 min 659 W/m 6,8 km/h (2 Bft) 95,74 %
05.07.2018 12:00 25,2 C 30,6 C 22,8 C 62 % 1011,2 hPa 0,0 l/m 2 min 0 min 635 W/m 4,5 km/h (1 Bft) 95,74 %
05.07.2018 12:02 25,3 C 31,1 C 23,3 C 61 % 1011,2 hPa 0,0 l/m 2 min 0 min 660 W/m 6,8 km/h (2 Bft) 96,23 %
05.07.2018 12:04 25,4 C 31,1 C 23,3 C 62 % 1011,3 hPa 0,0 l/m 2 min 0 min 673 W/m 6,8 km/h (2 Bft) 95,65 %
05.07.2018 12:07 25,5 C 32,2 C 23,9 C 62 % 1011,2 hPa 0,0 l/m 3 min 0 min 684 W/m 9,0 km/h (2 Bft) 95,65 %
05.07.2018 12:10 25,7 C 31,7 C 23,9 C 61 % 1011,1 hPa 0,0 l/m 3 min 0 min 655 W/m 15,8 km/h (3 Bft) 95,45 %
05.07.2018 12:12 25,8 C 31,1 C 23,3 C 61 % 1011,2 hPa 0,0 l/m 2 min 0 min 670 W/m 13,5 km/h (3 Bft) 93,62 %
05.07.2018 12:14 25,8 C 30,6 C 23,3 C 60 % 1011,2 hPa 0,0 l/m 2 min 0 min 675 W/m 11,3 km/h (2 Bft) 95,74 %
05.07.2018 12:16 25,8 C 31,1 C 23,3 C 61 % 1011,2 hPa 0,0 l/m 2 min 0 min 692 W/m 9,0 km/h (2 Bft) 95,65 %
05.07.2018 12:18 25,9 C 31,7 C 23,3 C 61 % 1011,1 hPa 0,0 l/m 2 min 0 min 702 W/m 13,5 km/h (3 Bft) 95,74 %
05.07.2018 12:20 26,0 C 32,2 C 23,3 C 61 % 1011,1 hPa 0,0 l/m 2 min 0 min 632 W/m 9,0 km/h (2 Bft) 93,62 %
05.07.2018 12:22 26,0 C 32,2 C 23,3 C 60 % 1011,0 hPa 0,0 l/m 2 min 0 min 675 W/m 9,0 km/h (2 Bft) 95,74 %
05.07.2018 12:24 26,1 C 32,2 C 23,3 C 60 % 1011,1 hPa 0,0 l/m 2 min 0 min 738 W/m 15,8 km/h (3 Bft) 95,74 %
05.07.2018 12:26 26,2 C 32,2 C 23,3 C 60 % 1011,0 hPa 0,0 l/m 2 min 0 min 766 W/m 11,3 km/h (2 Bft) 95,74 %
05.07.2018 12:28 26,2 C 32,2 C 23,3 C 60 % 1011,0 hPa 0,0 l/m 2 min 0 min 743 W/m 9,0 km/h (2 Bft) 93,48 %
05.07.2018 12:30 26,2 C 32,2 C 23,3 C 59 % 1011,0 hPa 0,0 l/m 2 min 0 min 648 W/m 13,5 km/h (3 Bft) 95,74 %
05.07.2018 12:32 26,3 C 32,2 C 23,3 C 60 % 1011,0 hPa 0,0 l/m 2 min 0 min 722 W/m 11,3 km/h (2 Bft) 95,74 %
05.07.2018 12:34 26,3 C 32,2 C 23,3 C 60 % 1011,0 hPa 0,0 l/m 2 min 0 min 691 W/m 9,0 km/h (2 Bft) 97,87 %
05.07.2018 12:36 26,3 C 32,2 C 23,9 C 59 % 1011,0 hPa 0,0 l/m 2 min 0 min 655 W/m 6,8 km/h (2 Bft) 95,83 %
05.07.2018 12:38 26,4 C 32,2 C 23,9 C 59 % 1011,0 hPa 0,0 l/m 2 min 0 min 608 W/m 11,3 km/h (2 Bft) 97,87 %
05.07.2018 12:40 26,4 C 31,7 C 23,9 C 60 % 1011,0 hPa 0,0 l/m 2 min 0 min 617 W/m 11,3 km/h (2 Bft) 97,83 %
05.07.2018 12:42 26,4 C 31,7 C 23,9 C 58 % 1011,0 hPa 0,0 l/m 2 min 0 min 628 W/m 15,8 km/h (3 Bft) 97,87 %
05.07.2018 12:44 26,4 C 30,6 C 23,9 C 58 % 1011,0 hPa 0,0 l/m 2 min 0 min 583 W/m 13,5 km/h (3 Bft) 95,74 %
05.07.2018 12:46 26,4 C 31,1 C 23,3 C 59 % 1011,0 hPa 0,0 l/m 2 min 0 min 603 W/m 6,8 km/h (2 Bft) 97,87 %
05.07.2018 12:48 26,5 C 30,6 C 23,9 C 58 % 1011,1 hPa 0,0 l/m 2 min 0 min 507 W/m 4,5 km/h (1 Bft) 100,00 %
05.07.2018 12:50 26,5 C 29,4 C 23,9 C 58 % 1011,0 hPa 0,0 l/m 0 min 0 min 401 W/m 9,0 km/h (2 Bft) 97,87 %
05.07.2018 12:52 26,4 C 28,3 C 23,3 C 57 % 1011,0 hPa 0,0 l/m 0 min 0 min 361 W/m 6,8 km/h (2 Bft) 100,00 %
05.07.2018 12:54 26,4 C 27,8 C 23,3 C 57 % 1011,1 hPa 0,0 l/m 0 min 0 min 373 W/m 9,0 km/h (2 Bft) 100,00 %
05.07.2018 12:56 26,4 C 27,8 C 23,3 C 57 % 1011,1 hPa 0,0 l/m 0 min 0 min 406 W/m 9,0 km/h (2 Bft) 100,00 %
05.07.2018 12:58 26,4 C 27,2 C 23,3 C 57 % 1011,1 hPa 0,0 l/m 0 min 0 min 383 W/m 11,3 km/h (2 Bft) 100,00 %
05.07.2018 13:00 26,3 C 27,2 C 23,3 C 57 % 1011,1 hPa 0,0 l/m 0 min 0 min 387 W/m 4,5 km/h (1 Bft) 97,87 %
05.07.2018 13:02 26,3 C 27,2 C 23,9 C 57 % 1011,1 hPa 0,0 l/m 0 min 0 min 397 W/m 4,5 km/h (1 Bft) 100,00 %
05.07.2018 13:04 26,2 C 27,2 C 23,3 C 58 % 1011,1 hPa 0,0 l/m 0 min 0 min 400 W/m 11,3 km/h (2 Bft) 100,00 %
05.07.2018 13:06 26,2 C 27,2 C 23,9 C 57 % 1011,1 hPa 0,0 l/m 0 min 0 min 397 W/m 4,5 km/h (1 Bft) 100,00 %
05.07.2018 13:08 26,2 C 27,2 C 23,9 C 57 % 1011,1 hPa 0,0 l/m 0 min 0 min 415 W/m 13,5 km/h (3 Bft) 95,74 %
05.07.2018 13:10 26,1 C 27,2 C 23,9 C 58 % 1011,2 hPa 0,0 l/m 2 min 0 min 445 W/m 9,0 km/h (2 Bft) 97,87 %
05.07.2018 13:12 26,1 C 27,2 C 23,9 C 57 % 1011,2 hPa 0,0 l/m 2 min 0 min 474 W/m 9,0 km/h (2 Bft) 97,87 %
05.07.2018 13:14 26,1 C 27,8 C 23,9 C 58 % 1011,2 hPa 0,0 l/m 2 min 0 min 508 W/m 9,0 km/h (2 Bft) 97,83 %
05.07.2018 13:16 26,0 C 28,3 C 23,9 C 58 % 1011,2 hPa 0,0 l/m 2 min 0 min 631 W/m 11,3 km/h (2 Bft) 97,87 %
05.07.2018 13:18 26,0 C 28,3 C 23,9 C 58 % 1011,2 hPa 0,0 l/m 2 min 0 min 537 W/m 11,3 km/h (2 Bft) 97,87 %
05.07.2018 13:20 26,0 C 28,3 C 23,9 C 58 % 1011,2 hPa 0,0 l/m 2 min 0 min 500 W/m 6,8 km/h (2 Bft) 97,87 %
05.07.2018 13:22 26,0 C 28,9 C 23,9 C 59 % 1011,1 hPa 0,0 l/m 2 min 0 min 544 W/m 9,0 km/h (2 Bft) 97,87 %
05.07.2018 13:24 26,1 C 28,9 C 24,4 C 59 % 1011,2 hPa 0,0 l/m 2 min 0 min 513 W/m 6,8 km/h (2 Bft) 100,00 %
05.07.2018 13:26 26,1 C 29,4 C 24,4 C 58 % 1011,2 hPa 0,0 l/m 2 min 0 min 572 W/m 9,0 km/h (2 Bft) 100,00 %
05.07.2018 13:28 26,1 C 30,6 C 24,4 C 58 % 1011,1 hPa 0,0 l/m 2 min 0 min 688 W/m 4,5 km/h (1 Bft) 97,87 %
05.07.2018 13:30 26,2 C 31,1 C 25,0 C 59 % 1011,1 hPa 0,0 l/m 2 min 0 min 755 W/m 6,8 km/h (2 Bft) 97,87 %
05.07.2018 13:32 26,3 C 31,7 C 25,0 C 60 % 1011,2 hPa 0,0 l/m 2 min 0 min 705 W/m 15,8 km/h (3 Bft) 97,87 %
05.07.2018 13:34 26,3 C 30,0 C 25,0 C 58 % 1011,2 hPa 0,0 l/m 2 min 0 min 621 W/m 13,5 km/h (3 Bft) 100,00 %
05.07.2018 13:36 26,3 C 28,9 C 24,4 C 57 % 1011,2 hPa 0,0 l/m 2 min 0 min 437 W/m 15,8 km/h (3 Bft) 97,87 %
05.07.2018 13:38 26,3 C 28,3 C 24,4 C 56 % 1011,1 hPa 0,0 l/m 2 min 0 min 458 W/m 6,8 km/h (2 Bft) 97,83 %
05.07.2018 13:40 26,4 C 28,3 C 24,4 C 58 % 1011,1 hPa 0,0 l/m 2 min 0 min 459 W/m 6,8 km/h (2 Bft) 97,87 %
05.07.2018 13:42 26,4 C 28,3 C 24,4 C 57 % 1011,1 hPa 0,0 l/m 2 min 0 min 465 W/m 6,8 km/h (2 Bft) 95,74 %
05.07.2018 13:44 26,4 C 28,3 C 24,4 C 57 % 1011,1 hPa 0,0 l/m 2 min 0 min 450 W/m 13,5 km/h (3 Bft) 97,87 %
05.07.2018 13:46 26,4 C 27,8 C 24,4 C 56 % 1011,1 hPa 0,0 l/m 2 min 0 min 495 W/m 11,3 km/h (2 Bft) 97,87 %
05.07.2018 13:48 26,4 C 27,8 C 24,4 C 57 % 1011,0 hPa 0,0 l/m 2 min 0 min 614 W/m 11,3 km/h (2 Bft) 97,87 %
05.07.2018 13:50 26,4 C 28,3 C 24,4 C 57 % 1011,0 hPa 0,0 l/m 2 min 0 min 589 W/m 6,8 km/h (2 Bft) 97,83 %
05.07.2018 13:52 26,5 C 27,8 C 24,4 C 56 % 1011,0 hPa 0,0 l/m 2 min 0 min 450 W/m 6,8 km/h (2 Bft) 97,87 %
05.07.2018 13:54 26,5 C 27,8 C 24,4 C 57 % 1011,0 hPa 0,0 l/m 2 min 0 min 460 W/m 6,8 km/h (2 Bft) 97,87 %
05.07.2018 13:56 26,5 C 27,8 C 24,4 C 57 % 1011,0 hPa 0,0 l/m 2 min 0 min 452 W/m 6,8 km/h (2 Bft) 97,87 %
05.07.2018 13:58 26,5 C 27,8 C 24,4 C 56 % 1010,9 hPa 0,0 l/m 2 min 0 min 450 W/m 11,3 km/h (2 Bft) 100,00 %
05.07.2018 14:00 26,5 C 27,8 C 24,4 C 56 % 1010,9 hPa 0,0 l/m 2 min 0 min 540 W/m 4,5 km/h (1 Bft) 97,87 %
05.07.2018 14:02 26,6 C 28,3 C 24,4 C 57 % 1010,9 hPa 0,0 l/m 2 min 0 min 611 W/m 6,8 km/h (2 Bft) 97,87 %
05.07.2018 14:04 26,6 C 28,3 C 24,4 C 57 % 1010,9 hPa 0,0 l/m 2 min 0 min 673 W/m 15,8 km/h (3 Bft) 97,87 %
05.07.2018 14:08 26,6 C 28,3 C 25,0 C 58 % 1010,9 hPa 0,0 l/m 4 min 0 min 703 W/m 13,5 km/h (3 Bft) 96,84 %
05.07.2018 14:10 26,6 C 28,3 C 24,4 C 57 % 1010,9 hPa 0,0 l/m 2 min 0 min 447 W/m 11,3 km/h (2 Bft) 97,87 %
05.07.2018 14:12 26,6 C 27,8 C 24,4 C 55 % 1010,9 hPa 0,0 l/m 2 min 0 min 448 W/m 9,0 km/h (2 Bft) 95,74 %
05.07.2018 14:14 26,6 C 27,8 C 24,4 C 57 % 1010,9 hPa 0,0 l/m 2 min 0 min 482 W/m 9,0 km/h (2 Bft) 97,87 %
05.07.2018 14:16 26,6 C 27,8 C 24,4 C 56 % 1010,9 hPa 0,0 l/m 2 min 0 min 496 W/m 9,0 km/h (2 Bft) 97,87 %
05.07.2018 14:18 26,6 C 28,3 C 24,4 C 56 % 1010,9 hPa 0,0 l/m 2 min 0 min 703 W/m 15,8 km/h (3 Bft) 97,87 %
05.07.2018 14:20 26,6 C 28,9 C 25,0 C 57 % 1010,9 hPa 0,0 l/m 2 min 0 min 866 W/m 4,5 km/h (1 Bft) 97,87 %
05.07.2018 14:22 26,7 C 28,9 C 25,6 C 56 % 1010,9 hPa 0,0 l/m 2 min 0 min 760 W/m 9,0 km/h (2 Bft) 97,83 %
05.07.2018 14:24 26,7 C 28,9 C 25,6 C 58 % 1010,9 hPa 0,0 l/m 2 min 0 min 753 W/m 13,5 km/h (3 Bft) 95,74 %
05.07.2018 14:26 26,8 C 28,3 C 25,6 C 56 % 1010,9 hPa 0,0 l/m 2 min 0 min 452 W/m 6,8 km/h (2 Bft) 95,74 %
05.07.2018 14:28 26,8 C 28,3 C 25,0 C 56 % 1010,9 hPa 0,0 l/m 2 min 0 min 474 W/m 11,3 km/h (2 Bft) 91,49 %
05.07.2018 14:30 26,8 C 28,9 C 25,6 C 57 % 1011,0 hPa 0,0 l/m 2 min 0 min 670 W/m 15,8 km/h (3 Bft) 95,74 %
05.07.2018 14:32 26,9 C 28,9 C 25,6 C 57 % 1010,9 hPa 0,0 l/m 2 min 0 min 672 W/m 6,8 km/h (2 Bft) 95,74 %
05.07.2018 14:34 26,9 C 28,9 C 25,6 C 56 % 1011,0 hPa 0,0 l/m 2 min 0 min 545 W/m 20,3 km/h (4 Bft) 97,83 %
05.07.2018 14:36 27,0 C 28,9 C 25,6 C 56 % 1011,1 hPa 0,0 l/m 2 min 0 min 840 W/m 11,3 km/h (2 Bft) 95,74 %
05.07.2018 14:38 27,0 C 28,3 C 25,6 C 57 % 1011,0 hPa 0,0 l/m 2 min 0 min 505 W/m 11,3 km/h (2 Bft) 97,87 %
05.07.2018 14:40 27,1 C 28,3 C 25,6 C 56 % 1011,0 hPa 0,0 l/m 2 min 0 min 415 W/m 6,8 km/h (2 Bft) 97,87 %
05.07.2018 14:42 27,1 C 27,8 C 25,0 C 56 % 1011,0 hPa 0,0 l/m 2 min 0 min 419 W/m 9,0 km/h (2 Bft) 95,74 %
05.07.2018 14:44 27,1 C 27,8 C 25,0 C 56 % 1011,0 hPa 0,0 l/m 2 min 0 min 540 W/m 15,8 km/h (3 Bft) 95,83 %
05.07.2018 14:46 27,1 C 27,8 C 25,0 C 56 % 1011,0 hPa 0,0 l/m 2 min 0 min 610 W/m 11,3 km/h (2 Bft) 97,83 %
05.07.2018 14:48 27,1 C 27,8 C 25,6 C 56 % 1011,0 hPa 0,0 l/m 2 min 0 min 537 W/m 6,8 km/h (2 Bft) 100,00 %
05.07.2018 14:50 27,1 C 27,8 C 25,6 C 57 % 1011,0 hPa 0,0 l/m 2 min 0 min 460 W/m 6,8 km/h (2 Bft) 96,55 %
05.07.2018 14:52 27,1 C 28,3 C 25,0 C 56 % 1011,1 hPa 0,0 l/m 2 min 0 min 475 W/m 15,8 km/h (3 Bft) 97,87 %
05.07.2018 14:54 27,1 C 28,3 C 25,0 C 57 % 1011,1 hPa 0,0 l/m 2 min 0 min 447 W/m 11,3 km/h (2 Bft) 95,74 %
05.07.2018 14:56 27,1 C 27,8 C 25,0 C 56 % 1011,1 hPa 0,0 l/m 0 min 0 min 380 W/m 13,5 km/h (3 Bft) 97,92 %
05.07.2018 14:58 27,1 C 27,2 C 25,0 C 56 % 1011,1 hPa 0,0 l/m 0 min 0 min 351 W/m 4,5 km/h (1 Bft) 97,87 %
05.07.2018 15:00 27,0 C 27,8 C 25,0 C 56 % 1011,0 hPa 0,0 l/m 0 min 0 min 380 W/m 6,8 km/h (2 Bft) 97,83 %
05.07.2018 15:02 27,0 C 27,8 C 24,4 C 56 % 1011,1 hPa 0,0 l/m 2 min 0 min 444 W/m 11,3 km/h (2 Bft) 97,87 %
05.07.2018 15:04 26,9 C 27,8 C 25,0 C 56 % 1011,1 hPa 0,0 l/m 2 min 0 min 546 W/m 11,3 km/h (2 Bft) 97,87 %
05.07.2018 15:06 26,9 C 27,8 C 24,4 C 56 % 1011,1 hPa 0,0 l/m 2 min 0 min 535 W/m 11,3 km/h (2 Bft) 95,74 %
05.07.2018 15:08 26,9 C 27,8 C 25,0 C 56 % 1011,2 hPa 0,0 l/m 2 min 0 min 513 W/m 6,8 km/h (2 Bft) 97,87 %
05.07.2018 15:10 26,9 C 27,8 C 25,0 C 56 % 1011,2 hPa 0,0 l/m 2 min 0 min 532 W/m 13,5 km/h (3 Bft) 97,87 %
05.07.2018 15:12 26,9 C 27,8 C 25,0 C 57 % 1011,1 hPa 0,0 l/m 2 min 0 min 539 W/m 13,5 km/h (3 Bft) 97,83 %
05.07.2018 15:14 26,8 C 27,8 C 25,0 C 56 % 1011,1 hPa 0,0 l/m 2 min 0 min 547 W/m 4,5 km/h (1 Bft) 95,74 %
05.07.2018 15:16 26,9 C 27,8 C 25,0 C 56 % 1011,1 hPa 0,0 l/m 2 min 0 min 518 W/m 15,8 km/h (3 Bft) 97,87 %
05.07.2018 15:18 26,8 C 27,8 C 25,0 C 55 % 1011,1 hPa 0,0 l/m 2 min 0 min 514 W/m 15,8 km/h (3 Bft) 95,74 %
05.07.2018 15:20 26,8 C 27,8 C 25,0 C 55 % 1011,1 hPa 0,0 l/m 2 min 0 min 463 W/m 11,3 km/h (2 Bft) 97,87 %
05.07.2018 15:22 26,8 C 27,8 C 25,0 C 55 % 1011,1 hPa 0,0 l/m 2 min 0 min 424 W/m 13,5 km/h (3 Bft) 97,87 %
05.07.2018 15:24 26,8 C 27,2 C 25,0 C 54 % 1011,1 hPa 0,0 l/m 0 min 0 min 377 W/m 11,3 km/h (2 Bft) 97,83 %
05.07.2018 15:26 26,8 C 27,8 C 25,0 C 55 % 1011,1 hPa 0,0 l/m 2 min 0 min 598 W/m 15,8 km/h (3 Bft) 97,87 %
05.07.2018 15:28 26,8 C 27,8 C 25,0 C 56 % 1011,1 hPa 0,0 l/m 2 min 0 min 674 W/m 13,5 km/h (3 Bft) 93,62 %
05.07.2018 15:30 26,8 C 27,8 C 25,0 C 55 % 1011,1 hPa 0,0 l/m 2 min 0 min 600 W/m 13,5 km/h (3 Bft) 97,87 %
05.07.2018 15:32 26,8 C 28,3 C 25,0 C 55 % 1011,1 hPa 0,0 l/m 2 min 0 min 599 W/m 9,0 km/h (2 Bft) 97,87 %
05.07.2018 15:34 26,8 C 28,3 C 25,0 C 55 % 1011,1 hPa 0,0 l/m 2 min 0 min 565 W/m 11,3 km/h (2 Bft) 95,74 %
05.07.2018 15:36 26,9 C 28,3 C 25,0 C 54 % 1011,0 hPa 0,0 l/m 2 min 0 min 574 W/m 11,3 km/h (2 Bft) 96,36 %
05.07.2018 15:38 26,9 C 28,3 C 25,0 C 54 % 1011,1 hPa 0,0 l/m 2 min 0 min 912 W/m 18,0 km/h (3 Bft) 97,87 %
05.07.2018 15:40 26,9 C 28,3 C 25,0 C 53 % 1011,0 hPa 0,0 l/m 2 min 0 min 816 W/m 11,3 km/h (2 Bft) 95,74 %
05.07.2018 15:42 26,9 C 28,3 C 25,6 C 53 % 1011,1 hPa 0,0 l/m 2 min 0 min 737 W/m 11,3 km/h (2 Bft) 97,87 %
05.07.2018 15:44 27,0 C 28,3 C 25,0 C 53 % 1011,1 hPa 0,0 l/m 2 min 0 min 578 W/m 15,8 km/h (3 Bft) 97,87 %
05.07.2018 15:46 27,0 C 28,3 C 25,0 C 53 % 1011,1 hPa 0,0 l/m 2 min 0 min 596 W/m 15,8 km/h (3 Bft) 97,83 %
05.07.2018 15:48 27,0 C 28,9 C 25,0 C 54 % 1011,1 hPa 0,0 l/m 2 min 0 min 687 W/m 15,8 km/h (3 Bft) 100,00 %
05.07.2018 15:50 27,1 C 30,0 C 25,0 C 54 % 1011,1 hPa 0,0 l/m 2 min 0 min 844 W/m 15,8 km/h (3 Bft) 97,87 %
05.07.2018 15:52 27,1 C 30,6 C 25,6 C 53 % 1011,1 hPa 0,0 l/m 2 min 0 min 746 W/m 15,8 km/h (3 Bft) 95,83 %
05.07.2018 15:54 27,1 C 30,6 C 25,6 C 53 % 1011,1 hPa 0,0 l/m 2 min 0 min 669 W/m 11,3 km/h (2 Bft) 97,87 %
05.07.2018 15:56 27,2 C 31,1 C 25,6 C 54 % 1011,1 hPa 0,0 l/m 2 min 0 min 824 W/m 22,5 km/h (4 Bft) 97,87 %
05.07.2018 15:58 27,2 C 31,7 C 25,6 C 54 % 1011,2 hPa 0,0 l/m 2 min 0 min 885 W/m 15,8 km/h (3 Bft) 95,65 %
05.07.2018 16:00 27,3 C 31,7 C 25,6 C 54 % 1011,1 hPa 0,0 l/m 2 min 0 min 891 W/m 11,3 km/h (2 Bft) 97,87 %
05.07.2018 16:02 27,3 C 31,7 C 25,6 C 54 % 1011,2 hPa 0,0 l/m 2 min 0 min 858 W/m 13,5 km/h (3 Bft) 94,59 %
05.07.2018 16:04 27,4 C 31,7 C 25,6 C 54 % 1011,2 hPa 0,0 l/m 2 min 0 min 779 W/m 15,8 km/h (3 Bft) 97,87 %
05.07.2018 16:06 27,5 C 31,1 C 25,6 C 54 % 1011,2 hPa 0,0 l/m 2 min 0 min 617 W/m 13,5 km/h (3 Bft) 100,00 %
05.07.2018 16:08 27,6 C 31,1 C 25,6 C 55 % 1011,2 hPa 0,0 l/m 2 min 0 min 691 W/m 11,3 km/h (2 Bft) 100,00 %
05.07.2018 16:10 27,6 C 31,1 C 25,6 C 55 % 1011,2 hPa 0,0 l/m 2 min 0 min 790 W/m 9,0 km/h (2 Bft) 100,00 %
05.07.2018 16:12 27,7 C 31,7 C 25,6 C 54 % 1011,2 hPa 0,0 l/m 2 min 0 min 850 W/m 11,3 km/h (2 Bft) 100,00 %
05.07.2018 16:14 27,7 C 30,0 C 25,6 C 52 % 1011,2 hPa 0,0 l/m 2 min 0 min 858 W/m 13,5 km/h (3 Bft) 97,87 %
05.07.2018 16:16 27,7 C 29,4 C 25,6 C 53 % 1011,3 hPa 0,0 l/m 2 min 0 min 441 W/m 9,0 km/h (2 Bft) 97,87 %
05.07.2018 16:18 27,7 C 28,9 C 25,6 C 55 % 1011,3 hPa 0,0 l/m 2 min 0 min 432 W/m 6,8 km/h (2 Bft) 100,00 %
05.07.2018 16:20 27,7 C 29,4 C 25,6 C 54 % 1011,3 hPa 0,0 l/m 2 min 0 min 479 W/m 9,0 km/h (2 Bft) 100,00 %
05.07.2018 16:22 27,7 C 28,9 C 25,6 C 54 % 1011,2 hPa 0,0 l/m 2 min 0 min 454 W/m 11,3 km/h (2 Bft) 100,00 %
05.07.2018 16:24 27,6 C 28,3 C 25,6 C 54 % 1011,2 hPa 0,0 l/m 2 min 0 min 398 W/m 18,0 km/h (3 Bft) 97,87 %
05.07.2018 16:26 27,6 C 28,3 C 25,6 C 54 % 1011,3 hPa 0,0 l/m 2 min 0 min 439 W/m 13,5 km/h (3 Bft) 97,87 %
05.07.2018 16:28 27,6 C 29,4 C 25,6 C 54 % 1011,2 hPa 0,0 l/m 2 min 0 min 539 W/m 4,5 km/h (1 Bft) 97,87 %
05.07.2018 16:30 27,6 C 30,0 C 25,6 C 54 % 1011,2 hPa 0,0 l/m 2 min 0 min 698 W/m 15,8 km/h (3 Bft) 100,00 %
05.07.2018 16:32 27,6 C 30,0 C 25,6 C 55 % 1011,2 hPa 0,0 l/m 2 min 0 min 771 W/m 11,3 km/h (2 Bft) 95,74 %
05.07.2018 16:34 27,6 C 30,6 C 25,6 C 55 % 1011,3 hPa 0,0 l/m 2 min 0 min 768 W/m 20,3 km/h (4 Bft) 97,83 %
05.07.2018 16:36 27,7 C 30,6 C 25,6 C 55 % 1011,2 hPa 0,0 l/m 2 min 0 min 756 W/m 18,0 km/h (3 Bft) 95,74 %
05.07.2018 16:38 27,7 C 31,1 C 25,6 C 55 % 1011,3 hPa 0,0 l/m 2 min 0 min 856 W/m 15,8 km/h (3 Bft) 100,00 %
05.07.2018 16:40 27,7 C 30,6 C 25,6 C 54 % 1011,3 hPa 0,0 l/m 2 min 0 min 810 W/m 24,8 km/h (4 Bft) 100,00 %
05.07.2018 16:42 27,8 C 30,0 C 25,6 C 54 % 1011,3 hPa 0,0 l/m 2 min 0 min 784 W/m 22,5 km/h (4 Bft) 97,87 %
05.07.2018 16:44 27,8 C 29,4 C 25,6 C 54 % 1011,3 hPa 0,0 l/m 2 min 0 min 432 W/m 15,8 km/h (3 Bft) 97,92 %
05.07.2018 16:46 27,8 C 30,0 C 25,6 C 54 % 1011,3 hPa 0,0 l/m 2 min 0 min 611 W/m 11,3 km/h (2 Bft) 97,83 %
05.07.2018 16:48 27,7 C 29,4 C 25,6 C 54 % 1011,3 hPa 0,0 l/m 2 min 0 min 756 W/m 9,0 km/h (2 Bft) 97,87 %
05.07.2018 16:50 27,7 C 28,3 C 25,6 C 54 % 1011,4 hPa 0,0 l/m 2 min 0 min 374 W/m 15,8 km/h (3 Bft) 97,87 %
05.07.2018 16:52 27,7 C 27,8 C 25,6 C 55 % 1011,3 hPa 0,0 l/m 0 min 0 min 306 W/m 13,5 km/h (3 Bft) 97,87 %
05.07.2018 16:54 27,7 C 27,8 C 25,6 C 54 % 1011,4 hPa 0,0 l/m 2 min 0 min 343 W/m 11,3 km/h (2 Bft) 97,87 %
05.07.2018 16:56 27,6 C 27,2 C 25,6 C 54 % 1011,3 hPa 0,0 l/m 2 min 0 min 340 W/m 11,3 km/h (2 Bft) 97,83 %
05.07.2018 16:58 27,6 C 28,3 C 25,6 C 55 % 1011,3 hPa 0,0 l/m 2 min 0 min 433 W/m 22,5 km/h (4 Bft) 97,87 %
05.07.2018 17:00 27,6 C 29,4 C 25,6 C 55 % 1011,4 hPa 0,0 l/m 2 min 0 min 757 W/m 9,0 km/h (2 Bft) 97,87 %
05.07.2018 17:02 27,6 C 29,4 C 25,6 C 54 % 1011,4 hPa 0,0 l/m 2 min 0 min 736 W/m 22,5 km/h (4 Bft) 95,74 %
05.07.2018 17:04 27,6 C 28,9 C 25,6 C 55 % 1011,4 hPa 0,0 l/m 2 min 0 min 731 W/m 18,0 km/h (3 Bft) 97,87 %
05.07.2018 17:06 27,6 C 28,3 C 25,6 C 54 % 1011,4 hPa 0,0 l/m 2 min 0 min 731 W/m 13,5 km/h (3 Bft) 91,49 %
05.07.2018 17:08 27,5 C 28,9 C 25,6 C 54 % 1011,3 hPa 0,0 l/m 2 min 0 min 738 W/m 15,8 km/h (3 Bft) 95,65 %
05.07.2018 17:10 27,5 C 29,4 C 25,6 C 55 % 1011,4 hPa 0,0 l/m 2 min 0 min 769 W/m 18,0 km/h (3 Bft) 95,74 %
05.07.2018 17:12 27,5 C 29,4 C 25,6 C 54 % 1011,5 hPa 0,0 l/m 2 min 0 min 780 W/m 15,8 km/h (3 Bft) 95,83 %
05.07.2018 17:14 27,5 C 28,9 C 25,6 C 54 % 1011,3 hPa 0,0 l/m 2 min 0 min 769 W/m 20,3 km/h (4 Bft) 95,74 %
05.07.2018 17:16 27,5 C 27,2 C 25,6 C 53 % 1011,3 hPa 0,0 l/m 2 min 0 min 472 W/m 11,3 km/h (2 Bft) 95,83 %
05.07.2018 17:18 27,5 C 27,2 C 25,0 C 54 % 1011,4 hPa 0,0 l/m 0 min 0 min 282 W/m 18,0 km/h (3 Bft) 95,74 %
05.07.2018 17:20 27,4 C 27,2 C 25,0 C 54 % 1011,4 hPa 0,0 l/m 0 min 0 min 270 W/m 18,0 km/h (3 Bft) 95,65 %
05.07.2018 17:22 27,3 C 27,2 C 25,0 C 54 % 1011,3 hPa 0,0 l/m 0 min 0 min 269 W/m 18,0 km/h (3 Bft) 91,67 %
05.07.2018 17:24 27,3 C 27,8 C 25,0 C 55 % 1011,3 hPa 0,0 l/m 2 min 0 min 435 W/m 13,5 km/h (3 Bft) 95,74 %
05.07.2018 17:26 27,3 C 28,3 C 25,6 C 55 % 1011,3 hPa 0,0 l/m 2 min 0 min 706 W/m 13,5 km/h (3 Bft) 95,92 %
05.07.2018 17:28 27,3 C 28,3 C 25,6 C 55 % 1011,3 hPa 0,0 l/m 2 min 0 min 666 W/m 22,5 km/h (4 Bft) 95,74 %
05.07.2018 17:30 27,3 C 28,3 C 25,6 C 55 % 1011,3 hPa 0,0 l/m 2 min 0 min 649 W/m 15,8 km/h (3 Bft) 93,62 %
05.07.2018 17:32 27,3 C 28,3 C 25,6 C 54 % 1011,4 hPa 0,0 l/m 2 min 0 min 620 W/m 13,5 km/h (3 Bft) 95,65 %
05.07.2018 17:34 27,3 C 28,3 C 25,6 C 54 % 1011,4 hPa 0,0 l/m 2 min 0 min 607 W/m 22,5 km/h (4 Bft) 93,62 %
05.07.2018 17:36 27,3 C 28,3 C 25,6 C 53 % 1011,3 hPa 0,0 l/m 2 min 0 min 616 W/m 22,5 km/h (4 Bft) 95,74 %
05.07.2018 17:38 27,3 C 28,3 C 25,6 C 53 % 1011,3 hPa 0,0 l/m 2 min 0 min 546 W/m 9,0 km/h (2 Bft) 93,62 %
05.07.2018 17:40 27,3 C 28,3 C 25,6 C 53 % 1011,3 hPa 0,0 l/m 2 min 0 min 665 W/m 18,0 km/h (3 Bft) 97,87 %
05.07.2018 17:42 27,3 C 28,3 C 25,6 C 53 % 1011,3 hPa 0,0 l/m 2 min 0 min 674 W/m 13,5 km/h (3 Bft) 100,00 %
05.07.2018 17:44 27,4 C 28,9 C 26,1 C 53 % 1011,3 hPa 0,0 l/m 2 min 0 min 709 W/m 18,0 km/h (3 Bft) 97,83 %
05.07.2018 17:46 27,4 C 28,9 C 26,1 C 52 % 1011,3 hPa 0,0 l/m 2 min 0 min 722 W/m 15,8 km/h (3 Bft) 97,87 %
05.07.2018 17:48 27,5 C 28,9 C 26,1 C 51 % 1011,4 hPa 0,0 l/m 2 min 0 min 727 W/m 20,3 km/h (4 Bft) 97,87 %
05.07.2018 17:50 27,5 C 28,9 C 26,1 C 51 % 1011,3 hPa 0,0 l/m 2 min 0 min 726 W/m 20,3 km/h (4 Bft) 97,87 %
05.07.2018 17:52 27,6 C 28,9 C 26,1 C 52 % 1011,4 hPa 0,0 l/m 2 min 0 min 717 W/m 11,3 km/h (2 Bft) 100,00 %
05.07.2018 17:54 27,6 C 28,3 C 26,1 C 51 % 1011,4 hPa 0,0 l/m 2 min 0 min 703 W/m 15,8 km/h (3 Bft) 100,00 %
05.07.2018 17:56 27,6 C 28,3 C 26,1 C 51 % 1011,4 hPa 0,0 l/m 2 min 0 min 691 W/m 13,5 km/h (3 Bft) 100,00 %
05.07.2018 17:58 27,7 C 28,9 C 26,1 C 51 % 1011,4 hPa 0,0 l/m 2 min 0 min 682 W/m 15,8 km/h (3 Bft) 97,87 %
05.07.2018 18:00 27,7 C 28,9 C 26,1 C 50 % 1011,3 hPa 0,0 l/m 2 min 0 min 668 W/m 13,5 km/h (3 Bft) 100,00 %
05.07.2018 18:02 27,7 C 28,9 C 26,1 C 50 % 1011,4 hPa 0,0 l/m 2 min 0 min 654 W/m 11,3 km/h (2 Bft) 100,00 %
05.07.2018 18:04 27,7 C 28,3 C 26,1 C 50 % 1011,3 hPa 0,0 l/m 2 min 0 min 659 W/m 11,3 km/h (2 Bft) 100,00 %
05.07.2018 18:08 27,7 C 28,3 C 26,1 C 49 % 1011,3 hPa 0,0 l/m 4 min 0 min 633 W/m 13,5 km/h (3 Bft) 98,82 %
05.07.2018 18:10 27,7 C 28,3 C 25,6 C 49 % 1011,3 hPa 0,0 l/m 2 min 0 min 570 W/m 11,3 km/h (2 Bft) 100,00 %
05.07.2018 18:12 27,7 C 28,3 C 25,6 C 49 % 1011,3 hPa 0,0 l/m 2 min 0 min 514 W/m 11,3 km/h (2 Bft) 100,00 %
05.07.2018 18:14 27,7 C 27,8 C 25,6 C 49 % 1011,3 hPa 0,0 l/m 2 min 0 min 535 W/m 13,5 km/h (3 Bft) 100,00 %
05.07.2018 18:16 27,6 C 27,8 C 25,6 C 48 % 1011,3 hPa 0,0 l/m 2 min 0 min 441 W/m 15,8 km/h (3 Bft) 100,00 %
05.07.2018 18:18 27,5 C 27,2 C 25,6 C 49 % 1011,4 hPa 0,0 l/m 2 min 0 min 303 W/m 13,5 km/h (3 Bft) 100,00 %
05.07.2018 18:20 27,4 C 27,2 C 25,0 C 48 % 1011,3 hPa 0,0 l/m 2 min 0 min 290 W/m 9,0 km/h (2 Bft) 100,00 %
05.07.2018 18:22 27,4 C 27,2 C 25,0 C 49 % 1011,3 hPa 0,0 l/m 2 min 0 min 390 W/m 11,3 km/h (2 Bft) 100,00 %
05.07.2018 18:24 27,4 C 27,2 C 25,6 C 50 % 1011,3 hPa 0,0 l/m 2 min 0 min 512 W/m 9,0 km/h (2 Bft) 100,00 %
05.07.2018 18:26 27,3 C 27,2 C 25,6 C 49 % 1011,3 hPa 0,0 l/m 2 min 0 min 543 W/m 13,5 km/h (3 Bft) 100,00 %
05.07.2018 18:28 27,3 C 27,8 C 25,6 C 49 % 1011,3 hPa 0,0 l/m 2 min 0 min 547 W/m 13,5 km/h (3 Bft) 97,87 %
05.07.2018 18:30 27,3 C 27,8 C 25,6 C 49 % 1011,3 hPa 0,0 l/m 2 min 0 min 565 W/m 13,5 km/h (3 Bft) 100,00 %
05.07.2018 18:32 27,3 C 27,8 C 25,6 C 48 % 1011,2 hPa 0,0 l/m 2 min 0 min 549 W/m 15,8 km/h (3 Bft) 100,00 %
05.07.2018 18:34 27,3 C 27,8 C 25,6 C 48 % 1011,2 hPa 0,0 l/m 2 min 0 min 583 W/m 13,5 km/h (3 Bft) 100,00 %
05.07.2018 18:36 27,3 C 27,8 C 25,6 C 48 % 1011,2 hPa 0,0 l/m 2 min 0 min 604 W/m 11,3 km/h (2 Bft) 100,00 %
05.07.2018 18:38 27,3 C 27,8 C 25,6 C 48 % 1011,2 hPa 0,0 l/m 2 min 0 min 613 W/m 15,8 km/h (3 Bft) 100,00 %
05.07.2018 18:40 27,3 C 27,8 C 25,6 C 48 % 1011,1 hPa 0,0 l/m 2 min 0 min 442 W/m 11,3 km/h (2 Bft) 100,00 %
05.07.2018 18:42 27,3 C 27,8 C 25,6 C 48 % 1011,2 hPa 0,0 l/m 2 min 0 min 600 W/m 11,3 km/h (2 Bft) 100,00 %
05.07.2018 18:44 27,3 C 27,8 C 25,6 C 48 % 1011,2 hPa 0,0 l/m 2 min 0 min 572 W/m 27,0 km/h (4 Bft) 100,00 %
05.07.2018 18:46 27,3 C 27,8 C 25,6 C 48 % 1011,2 hPa 0,0 l/m 2 min 0 min 542 W/m 15,8 km/h (3 Bft) 100,00 %
05.07.2018 18:48 27,3 C 27,2 C 25,6 C 48 % 1011,2 hPa 0,0 l/m 2 min 0 min 490 W/m 15,8 km/h (3 Bft) 97,62 %
05.07.2018 18:50 27,3 C 27,2 C 25,6 C 48 % 1011,1 hPa 0,0 l/m 2 min 0 min 420 W/m 11,3 km/h (2 Bft) 97,87 %
05.07.2018 18:52 27,3 C 27,2 C 25,6 C 47 % 1011,1 hPa 0,0 l/m 2 min 0 min 460 W/m 15,8 km/h (3 Bft) 98,11 %
05.07.2018 18:54 27,3 C 27,2 C 25,6 C 47 % 1011,2 hPa 0,0 l/m 2 min 0 min 478 W/m 18,0 km/h (3 Bft) 97,87 %
05.07.2018 18:56 27,3 C 27,2 C 25,6 C 47 % 1011,2 hPa 0,0 l/m 2 min 0 min 471 W/m 15,8 km/h (3 Bft) 95,65 %
05.07.2018 18:58 27,3 C 27,2 C 25,6 C 48 % 1011,2 hPa 0,0 l/m 2 min 0 min 446 W/m 11,3 km/h (2 Bft) 97,87 %
05.07.2018 19:00 27,3 C 27,2 C 25,6 C 48 % 1011,1 hPa 0,0 l/m 2 min 0 min 366 W/m 11,3 km/h (2 Bft) 97,87 %
05.07.2018 19:02 27,2 C 26,7 C 25,6 C 48 % 1011,1 hPa 0,0 l/m 2 min 0 min 260 W/m 11,3 km/h (2 Bft) 97,96 %
05.07.2018 19:04 27,2 C 26,7 C 25,0 C 48 % 1011,1 hPa 0,0 l/m 2 min 0 min 264 W/m 11,3 km/h (2 Bft) 97,87 %
05.07.2018 19:06 27,2 C 26,7 C 25,0 C 48 % 1011,2 hPa 0,0 l/m 2 min 0 min 311 W/m 15,8 km/h (3 Bft) 95,74 %
05.07.2018 19:08 27,1 C 26,7 C 25,0 C 48 % 1011,2 hPa 0,0 l/m 2 min 0 min 356 W/m 15,8 km/h (3 Bft) 97,87 %
05.07.2018 19:10 27,1 C 26,7 C 25,0 C 48 % 1011,1 hPa 0,0 l/m 2 min 0 min 376 W/m 13,5 km/h (3 Bft) 97,87 %
05.07.2018 19:12 27,1 C 26,7 C 25,0 C 48 % 1011,2 hPa 0,0 l/m 2 min 0 min 379 W/m 18,0 km/h (3 Bft) 95,74 %
05.07.2018 19:14 27,0 C 26,7 C 25,0 C 49 % 1011,2 hPa 0,0 l/m 2 min 0 min 377 W/m 15,8 km/h (3 Bft) 97,87 %
05.07.2018 19:16 26,9 C 26,7 C 25,0 C 50 % 1011,1 hPa 0,0 l/m 2 min 0 min 380 W/m 13,5 km/h (3 Bft) 97,87 %
05.07.2018 19:18 26,9 C 26,7 C 25,0 C 50 % 1011,1 hPa 0,0 l/m 2 min 0 min 374 W/m 13,5 km/h (3 Bft) 97,83 %
05.07.2018 19:20 26,9 C 26,7 C 25,0 C 50 % 1011,1 hPa 0,0 l/m 2 min 0 min 368 W/m 11,3 km/h (2 Bft) 97,87 %
05.07.2018 19:22 26,9 C 26,7 C 25,0 C 51 % 1011,2 hPa 0,0 l/m 2 min 0 min 365 W/m 9,0 km/h (2 Bft) 97,87 %
05.07.2018 19:24 26,8 C 26,7 C 25,0 C 50 % 1011,2 hPa 0,0 l/m 2 min 0 min 359 W/m 11,3 km/h (2 Bft) 97,87 %
05.07.2018 19:26 26,8 C 26,7 C 24,4 C 51 % 1011,2 hPa 0,0 l/m 2 min 0 min 349 W/m 13,5 km/h (3 Bft) 97,87 %
05.07.2018 19:28 26,8 C 26,7 C 24,4 C 51 % 1011,1 hPa 0,0 l/m 2 min 0 min 346 W/m 6,8 km/h (2 Bft) 97,87 %
05.07.2018 19:30 26,8 C 26,7 C 24,4 C 51 % 1011,1 hPa 0,0 l/m 2 min 0 min 337 W/m 11,3 km/h (2 Bft) 97,83 %
05.07.2018 19:32 26,8 C 26,7 C 24,4 C 51 % 1011,1 hPa 0,0 l/m 2 min 0 min 331 W/m 13,5 km/h (3 Bft) 97,96 %
05.07.2018 19:34 26,7 C 26,7 C 24,4 C 51 % 1011,2 hPa 0,0 l/m 2 min 0 min 322 W/m 6,8 km/h (2 Bft) 97,87 %
05.07.2018 19:36 26,7 C 26,7 C 24,4 C 51 % 1011,2 hPa 0,0 l/m 2 min 0 min 312 W/m 15,8 km/h (3 Bft) 97,96 %
05.07.2018 19:38 26,7 C 26,1 C 24,4 C 50 % 1011,2 hPa 0,0 l/m 2 min 0 min 304 W/m 15,8 km/h (3 Bft) 95,74 %
05.07.2018 19:40 26,7 C 26,1 C 24,4 C 50 % 1011,2 hPa 0,0 l/m 2 min 0 min 296 W/m 20,3 km/h (4 Bft) 94,44 %
05.07.2018 19:42 26,6 C 26,1 C 24,4 C 50 % 1011,2 hPa 0,0 l/m 2 min 0 min 284 W/m 15,8 km/h (3 Bft) 95,65 %
05.07.2018 19:44 26,6 C 26,1 C 24,4 C 51 % 1011,2 hPa 0,0 l/m 2 min 0 min 277 W/m 11,3 km/h (2 Bft) 98,31 %
05.07.2018 19:46 26,6 C 25,6 C 24,4 C 51 % 1011,2 hPa 0,0 l/m 2 min 0 min 262 W/m 13,5 km/h (3 Bft) 100,00 %
05.07.2018 19:48 26,5 C 25,6 C 23,9 C 51 % 1011,4 hPa 0,0 l/m 2 min 0 min 251 W/m 6,8 km/h (2 Bft) 95,83 %
05.07.2018 19:50 26,4 C 25,6 C 23,9 C 52 % 1011,3 hPa 0,0 l/m 2 min 0 min 257 W/m 11,3 km/h (2 Bft) 97,87 %
05.07.2018 19:52 26,4 C 25,6 C 23,9 C 52 % 1011,3 hPa 0,0 l/m 2 min 0 min 252 W/m 9,0 km/h (2 Bft) 97,87 %
05.07.2018 19:54 26,3 C 25,6 C 24,4 C 52 % 1011,3 hPa 0,0 l/m 2 min 0 min 243 W/m 9,0 km/h (2 Bft) 97,83 %
05.07.2018 19:56 26,3 C 25,6 C 24,4 C 52 % 1011,3 hPa 0,0 l/m 2 min 0 min 205 W/m 6,8 km/h (2 Bft) 95,74 %
05.07.2018 19:58 26,2 C 25,6 C 23,9 C 53 % 1011,4 hPa 0,0 l/m 2 min 0 min 122 W/m 11,3 km/h (2 Bft) 93,62 %
05.07.2018 20:00 26,2 C 25,6 C 23,9 C 53 % 1011,3 hPa 0,0 l/m 0 min 0 min 88 W/m 15,8 km/h (3 Bft) 95,74 %
05.07.2018 20:02 26,2 C 25,0 C 23,9 C 53 % 1011,3 hPa 0,0 l/m 0 min 0 min 87 W/m 6,8 km/h (2 Bft) 98,00 %
05.07.2018 20:04 26,1 C 25,0 C 23,9 C 53 % 1011,3 hPa 0,0 l/m 0 min 0 min 81 W/m 6,8 km/h (2 Bft) 95,65 %
05.07.2018 20:06 26,1 C 25,0 C 23,9 C 53 % 1011,3 hPa 0,0 l/m 0 min 0 min 78 W/m 9,0 km/h (2 Bft) 93,62 %
05.07.2018 20:08 26,0 C 25,0 C 23,9 C 54 % 1011,3 hPa 0,0 l/m 0 min 0 min 83 W/m 9,0 km/h (2 Bft) 95,74 %
05.07.2018 20:10 25,9 C 25,0 C 23,9 C 54 % 1011,3 hPa 0,0 l/m 0 min 0 min 82 W/m 13,5 km/h (3 Bft) 95,74 %
05.07.2018 20:12 25,9 C 25,0 C 23,9 C 55 % 1011,3 hPa 0,0 l/m 0 min 0 min 80 W/m 9,0 km/h (2 Bft) 95,74 %
05.07.2018 20:14 25,8 C 25,0 C 23,9 C 55 % 1011,4 hPa 0,0 l/m 0 min 0 min 77 W/m 15,8 km/h (3 Bft) 95,74 %
05.07.2018 20:16 25,8 C 25,0 C 23,9 C 55 % 1011,4 hPa 0,0 l/m 0 min 0 min 77 W/m 13,5 km/h (3 Bft) 93,62 %
05.07.2018 20:18 25,8 C 25,0 C 23,9 C 56 % 1011,3 hPa 0,0 l/m 0 min 0 min 76 W/m 6,8 km/h (2 Bft) 93,62 %
05.07.2018 20:20 25,7 C 24,4 C 23,9 C 56 % 1011,4 hPa 0,0 l/m 0 min 0 min 76 W/m 13,5 km/h (3 Bft) 97,87 %
05.07.2018 20:22 25,7 C 24,4 C 23,9 C 56 % 1011,4 hPa 0,0 l/m 0 min 0 min 76 W/m 13,5 km/h (3 Bft) 93,62 %
05.07.2018 20:24 25,6 C 24,4 C 23,3 C 56 % 1011,4 hPa 0,0 l/m 0 min 0 min 80 W/m 15,8 km/h (3 Bft) 95,74 %
05.07.2018 20:26 25,6 C 24,4 C 23,3 C 56 % 1011,4 hPa 0,0 l/m 0 min 0 min 84 W/m 13,5 km/h (3 Bft) 95,83 %
05.07.2018 20:28 25,6 C 24,4 C 23,3 C 57 % 1011,4 hPa 0,0 l/m 0 min 0 min 84 W/m 9,0 km/h (2 Bft) 95,65 %
05.07.2018 20:30 25,5 C 24,4 C 23,3 C 57 % 1011,4 hPa 0,0 l/m 0 min 0 min 83 W/m 13,5 km/h (3 Bft) 95,74 %
05.07.2018 20:32 25,4 C 24,4 C 23,3 C 57 % 1011,4 hPa 0,0 l/m 0 min 0 min 78 W/m 9,0 km/h (2 Bft) 95,74 %
05.07.2018 20:34 25,4 C 24,4 C 23,3 C 57 % 1011,5 hPa 0,0 l/m 0 min 0 min 76 W/m 9,0 km/h (2 Bft) 97,87 %
05.07.2018 20:36 25,3 C 24,4 C 23,3 C 57 % 1011,5 hPa 0,0 l/m 0 min 0 min 73 W/m 18,0 km/h (3 Bft) 97,87 %
05.07.2018 20:38 25,3 C 24,4 C 23,3 C 57 % 1011,5 hPa 0,0 l/m 0 min 0 min 71 W/m 11,3 km/h (2 Bft) 97,83 %
05.07.2018 20:40 25,2 C 23,9 C 23,3 C 57 % 1011,5 hPa 0,0 l/m 0 min 0 min 70 W/m 15,8 km/h (3 Bft) 95,74 %
05.07.2018 20:42 25,2 C 23,9 C 23,3 C 57 % 1011,6 hPa 0,0 l/m 0 min 0 min 67 W/m 9,0 km/h (2 Bft) 97,87 %
05.07.2018 20:44 25,1 C 23,9 C 23,3 C 58 % 1011,6 hPa 0,0 l/m 0 min 0 min 63 W/m 6,8 km/h (2 Bft) 97,87 %
05.07.2018 20:46 25,1 C 23,9 C 23,3 C 58 % 1011,7 hPa 0,0 l/m 0 min 0 min 61 W/m 6,8 km/h (2 Bft) 97,92 %
05.07.2018 20:48 25,1 C 23,9 C 23,3 C 58 % 1011,7 hPa 0,0 l/m 0 min 0 min 60 W/m 13,5 km/h (3 Bft) 95,83 %
05.07.2018 20:50 25,0 C 23,9 C 23,3 C 58 % 1011,6 hPa 0,0 l/m 0 min 0 min 56 W/m 9,0 km/h (2 Bft) 95,65 %
05.07.2018 20:52 25,0 C 23,9 C 23,3 C 58 % 1011,8 hPa 0,0 l/m 0 min 0 min 54 W/m 9,0 km/h (2 Bft) 97,87 %
05.07.2018 20:54 24,9 C 23,9 C 23,3 C 58 % 1011,7 hPa 0,0 l/m 0 min 0 min 53 W/m 11,3 km/h (2 Bft) 95,74 %
05.07.2018 20:56 24,9 C 23,9 C 23,3 C 58 % 1011,7 hPa 0,0 l/m 0 min 0 min 52 W/m 6,8 km/h (2 Bft) 100,00 %
05.07.2018 20:58 24,8 C 23,9 C 22,8 C 58 % 1011,7 hPa 0,0 l/m 0 min 0 min 49 W/m 11,3 km/h (2 Bft) 100,00 %
05.07.2018 21:00 24,8 C 23,3 C 22,8 C 58 % 1011,7 hPa 0,0 l/m 0 min 0 min 47 W/m 11,3 km/h (2 Bft) 100,00 %
05.07.2018 21:02 24,7 C 23,3 C 22,8 C 58 % 1011,7 hPa 0,0 l/m 0 min 0 min 43 W/m 13,5 km/h (3 Bft) 100,00 %
05.07.2018 21:04 24,7 C 23,3 C 22,8 C 58 % 1011,6 hPa 0,0 l/m 0 min 0 min 41 W/m 11,3 km/h (2 Bft) 100,00 %
05.07.2018 21:06 24,6 C 23,3 C 22,8 C 59 % 1011,8 hPa 0,0 l/m 0 min 0 min 39 W/m 6,8 km/h (2 Bft) 100,00 %
05.07.2018 21:08 24,6 C 23,3 C 22,8 C 59 % 1011,7 hPa 0,0 l/m 0 min 0 min 37 W/m 9,0 km/h (2 Bft) 100,00 %
05.07.2018 21:10 24,5 C 23,3 C 22,8 C 59 % 1011,8 hPa 0,0 l/m 0 min 0 min 35 W/m 9,0 km/h (2 Bft) 100,00 %
05.07.2018 21:12 24,4 C 23,3 C 22,8 C 59 % 1011,8 hPa 0,0 l/m 0 min 0 min 33 W/m 4,5 km/h (1 Bft) 100,00 %
05.07.2018 21:14 24,4 C 23,3 C 22,8 C 59 % 1011,8 hPa 0,0 l/m 0 min 0 min 32 W/m 9,0 km/h (2 Bft) 100,00 %
05.07.2018 21:16 24,4 C 23,3 C 22,8 C 59 % 1011,8 hPa 0,0 l/m 0 min 0 min 30 W/m 6,8 km/h (2 Bft) 97,87 %
05.07.2018 21:18 24,3 C 22,8 C 22,8 C 60 % 1011,9 hPa 0,0 l/m 0 min 0 min 28 W/m 9,0 km/h (2 Bft) 100,00 %
05.07.2018 21:20 24,3 C 22,8 C 22,2 C 60 % 1011,9 hPa 0,0 l/m 0 min 0 min 26 W/m 11,3 km/h (2 Bft) 100,00 %
05.07.2018 21:22 24,2 C 22,8 C 22,2 C 60 % 1011,9 hPa 0,0 l/m 2 min 0 min 25 W/m 9,0 km/h (2 Bft) 97,87 %
05.07.2018 21:24 24,2 C 22,8 C 22,2 C 60 % 1011,9 hPa 0,0 l/m 2 min 0 min 23 W/m 9,0 km/h (2 Bft) 100,00 %
05.07.2018 21:26 24,1 C 22,8 C 22,2 C 60 % 1012,0 hPa 0,0 l/m 2 min 0 min 20 W/m 9,0 km/h (2 Bft) 100,00 %
05.07.2018 21:28 24,1 C 22,8 C 20,6 C 60 % 1012,0 hPa 0,0 l/m 0 min 0 min 18 W/m 15,8 km/h (3 Bft) 100,00 %
05.07.2018 21:30 24,0 C 21,7 C 18,9 C 61 % 1012,0 hPa 0,0 l/m 0 min 0 min 16 W/m 13,5 km/h (3 Bft) 100,00 %
05.07.2018 21:32 23,9 C 20,6 C 18,3 C 61 % 1012,1 hPa 0,0 l/m 0 min 0 min 16 W/m 13,5 km/h (3 Bft) 100,00 %
05.07.2018 21:34 23,8 C 20,0 C 18,3 C 61 % 1012,1 hPa 0,0 l/m 0 min 0 min 16 W/m 9,0 km/h (2 Bft) 100,00 %
05.07.2018 21:36 23,7 C 19,4 C 17,8 C 62 % 1012,1 hPa 0,0 l/m 0 min 0 min 14 W/m 9,0 km/h (2 Bft) 100,00 %
05.07.2018 21:38 23,7 C 19,4 C 16,7 C 62 % 1012,2 hPa 0,0 l/m 0 min 0 min 13 W/m 9,0 km/h (2 Bft) 100,00 %
05.07.2018 21:40 23,5 C 20,0 C 17,2 C 62 % 1012,2 hPa 0,0 l/m 0 min 0 min 12 W/m 11,3 km/h (2 Bft) 97,87 %
05.07.2018 21:42 23,4 C 19,4 C 16,7 C 62 % 1012,2 hPa 0,0 l/m 0 min 0 min 11 W/m 11,3 km/h (2 Bft) 100,00 %
05.07.2018 21:44 23,3 C 18,9 C 16,1 C 61 % 1012,4 hPa 0,0 l/m 0 min 0 min 11 W/m 15,8 km/h (3 Bft) 100,00 %
05.07.2018 21:46 23,2 C 17,8 C 16,7 C 61 % 1012,5 hPa 0,0 l/m 0 min 0 min 11 W/m 11,3 km/h (2 Bft) 100,00 %
05.07.2018 21:48 23,1 C 17,2 C 16,1 C 61 % 1012,5 hPa 0,0 l/m 0 min 0 min 9 W/m 15,8 km/h (3 Bft) 100,00 %
05.07.2018 21:50 23,1 C 17,2 C 16,7 C 61 % 1012,6 hPa 0,0 l/m 0 min 0 min 9 W/m 13,5 km/h (3 Bft) 100,00 %
05.07.2018 21:52 22,9 C 17,2 C 16,1 C 62 % 1012,7 hPa 0,0 l/m 0 min 0 min 7 W/m 11,3 km/h (2 Bft) 100,00 %
05.07.2018 21:54 22,8 C 17,2 C 16,1 C 62 % 1012,6 hPa 0,0 l/m 0 min 0 min 7 W/m 13,5 km/h (3 Bft) 100,00 %
05.07.2018 21:56 22,8 C 17,2 C 16,1 C 62 % 1012,7 hPa 0,0 l/m 0 min 0 min 5 W/m 15,8 km/h (3 Bft) 95,83 %
05.07.2018 21:58 22,6 C 16,7 C 16,1 C 62 % 1012,7 hPa 0,0 l/m 0 min 0 min 5 W/m 11,3 km/h (2 Bft) 100,00 %
05.07.2018 22:00 22,6 C 16,7 C 16,1 C 64 % 1012,7 hPa 0,0 l/m 0 min 0 min 3 W/m 6,8 km/h (2 Bft) 100,00 %
05.07.2018 22:02 22,5 C 16,7 C 16,1 C 64 % 1012,7 hPa 0,0 l/m 0 min 0 min 0 W/m 15,8 km/h (3 Bft) 100,00 %
05.07.2018 22:04 22,4 C 16,7 C 16,1 C 63 % 1012,8 hPa 0,0 l/m 0 min 0 min 0 W/m 18,0 km/h (3 Bft) 100,00 %
05.07.2018 22:06 22,3 C 16,7 C 16,1 C 64 % 1012,8 hPa 0,0 l/m 0 min 0 min 0 W/m 18,0 km/h (3 Bft) 100,00 %
05.07.2018 22:08 22,2 C 16,7 C 16,1 C 64 % 1012,9 hPa 0,0 l/m 0 min 0 min 0 W/m 9,0 km/h (2 Bft) 100,00 %
05.07.2018 22:10 22,2 C 16,7 C 16,1 C 64 % 1012,9 hPa 0,0 l/m 0 min 0 min 0 W/m 6,8 km/h (2 Bft) 100,00 %
05.07.2018 22:12 22,1 C 16,7 C 15,6 C 65 % 1012,9 hPa 0,0 l/m 0 min 0 min 0 W/m 9,0 km/h (2 Bft) 97,83 %
05.07.2018 22:14 22,0 C 16,1 C 15,6 C 65 % 1012,9 hPa 0,0 l/m 0 min 0 min 0 W/m 9,0 km/h (2 Bft) 97,87 %
05.07.2018 22:16 21,9 C 16,1 C 15,6 C 66 % 1012,9 hPa 0,0 l/m 0 min 0 min 0 W/m 9,0 km/h (2 Bft) 97,87 %
05.07.2018 22:18 21,8 C 16,1 C 15,6 C 66 % 1013,0 hPa 0,0 l/m 0 min 0 min 0 W/m 15,8 km/h (3 Bft) 97,87 %
05.07.2018 22:20 21,7 C 16,7 C 15,6 C 66 % 1013,0 hPa 0,0 l/m 0 min 0 min 0 W/m 13,5 km/h (3 Bft) 97,87 %
05.07.2018 22:22 21,6 C 16,1 C 15,6 C 67 % 1013,0 hPa 0,0 l/m 0 min 0 min 0 W/m 11,3 km/h (2 Bft) 97,87 %
05.07.2018 22:24 21,6 C 16,7 C 15,6 C 67 % 1013,0 hPa 0,0 l/m 0 min 0 min 0 W/m 15,8 km/h (3 Bft) 97,22 %
05.07.2018 22:26 21,5 C 16,7 C 16,1 C 67 % 1013,0 hPa 0,0 l/m 0 min 0 min 0 W/m 11,3 km/h (2 Bft) 95,65 %
05.07.2018 22:28 21,4 C 16,7 C 16,1 C 68 % 1013,1 hPa 0,0 l/m 0 min 0 min 0 W/m 13,5 km/h (3 Bft) 97,87 %
05.07.2018 22:30 21,3 C 16,7 C 16,1 C 68 % 1013,1 hPa 0,0 l/m 0 min 0 min 0 W/m 11,3 km/h (2 Bft) 97,87 %
05.07.2018 22:32 21,3 C 16,7 C 16,1 C 68 % 1013,1 hPa 0,0 l/m 0 min 0 min 0 W/m 13,5 km/h (3 Bft) 97,87 %
05.07.2018 22:34 21,2 C 16,7 C 16,7 C 69 % 1013,2 hPa 0,0 l/m 0 min 0 min 0 W/m 13,5 km/h (3 Bft) 95,74 %
05.07.2018 22:36 21,1 C 16,7 C 16,7 C 69 % 1013,2 hPa 0,0 l/m 0 min 0 min 0 W/m 9,0 km/h (2 Bft) 93,62 %
05.07.2018 22:38 21,1 C 16,7 C 16,7 C 69 % 1013,3 hPa 0,0 l/m 0 min 0 min 0 W/m 18,0 km/h (3 Bft) 93,48 %
05.07.2018 22:40 21,0 C 16,7 C 16,7 C 69 % 1013,3 hPa 0,0 l/m 0 min 0 min 0 W/m 9,0 km/h (2 Bft) 95,74 %
05.07.2018 22:42 21,0 C 16,7 C 17,2 C 70 % 1013,3 hPa 0,0 l/m 0 min 0 min 0 W/m 9,0 km/h (2 Bft) 93,62 %
05.07.2018 22:44 21,0 C 16,7 C 17,2 C 70 % 1013,4 hPa 0,0 l/m 0 min 0 min 0 W/m 11,3 km/h (2 Bft) 93,62 %
05.07.2018 22:46 20,9 C 16,7 C 17,8 C 70 % 1013,4 hPa 0,0 l/m 0 min 0 min 0 W/m 11,3 km/h (2 Bft) 93,62 %
05.07.2018 22:48 20,9 C 16,7 C 17,8 C 70 % 1013,4 hPa 0,0 l/m 0 min 0 min 0 W/m 9,0 km/h (2 Bft) 93,62 %
05.07.2018 22:50 20,8 C 16,7 C 18,3 C 71 % 1013,4 hPa 0,0 l/m 0 min 0 min 0 W/m 9,0 km/h (2 Bft) 95,74 %
05.07.2018 22:52 20,8 C 16,7 C 18,9 C 71 % 1013,5 hPa 0,0 l/m 0 min 0 min 0 W/m 9,0 km/h (2 Bft) 93,62 %
05.07.2018 22:54 20,7 C 16,7 C 18,9 C 71 % 1013,5 hPa 0,0 l/m 0 min 0 min 0 W/m 4,5 km/h (1 Bft) 91,49 %
05.07.2018 22:56 20,7 C 16,7 C 18,9 C 71 % 1013,5 hPa 0,0 l/m 0 min 0 min 0 W/m 9,0 km/h (2 Bft) 93,62 %
05.07.2018 22:58 20,7 C 16,7 C 18,9 C 71 % 1013,5 hPa 0,0 l/m 0 min 0 min 0 W/m 11,3 km/h (2 Bft) 93,62 %
05.07.2018 23:00 20,6 C 16,7 C 18,9 C 71 % 1013,5 hPa 0,0 l/m 0 min 0 min 0 W/m 4,5 km/h (1 Bft) 93,48 %
05.07.2018 23:02 20,6 C 16,7 C 18,9 C 72 % 1013,6 hPa 0,0 l/m 0 min 0 min 0 W/m 4,5 km/h (1 Bft) 94,00 %
05.07.2018 23:04 20,5 C 17,2 C 18,9 C 72 % 1013,6 hPa 0,0 l/m 0 min 0 min 0 W/m 4,5 km/h (1 Bft) 91,49 %
05.07.2018 23:06 20,5 C 16,7 C 18,9 C 72 % 1013,6 hPa 0,0 l/m 0 min 0 min 0 W/m 4,5 km/h (1 Bft) 93,62 %
05.07.2018 23:08 20,4 C 16,7 C 18,9 C 72 % 1013,6 hPa 0,0 l/m 0 min 0 min 0 W/m 4,5 km/h (1 Bft) 93,62 %
05.07.2018 23:10 20,4 C 16,7 C 18,9 C 73 % 1013,6 hPa 0,0 l/m 0 min 0 min 0 W/m 4,5 km/h (1 Bft) 89,36 %
05.07.2018 23:12 20,4 C 16,7 C 18,9 C 73 % 1013,6 hPa 0,0 l/m 0 min 0 min 0 W/m 4,5 km/h (1 Bft) 93,48 %
05.07.2018 23:14 20,3 C 16,7 C 18,9 C 73 % 1013,6 hPa 0,0 l/m 0 min 0 min 0 W/m 4,5 km/h (1 Bft) 93,62 %
05.07.2018 23:16 20,3 C 16,7 C 18,3 C 73 % 1013,7 hPa 0,0 l/m 0 min 0 min 0 W/m 9,0 km/h (2 Bft) 93,62 %
05.07.2018 23:18 20,3 C 16,7 C 18,3 C 73 % 1013,7 hPa 0,0 l/m 0 min 0 min 0 W/m 4,5 km/h (1 Bft) 93,75 %
05.07.2018 23:20 20,2 C 16,7 C 18,3 C 73 % 1013,7 hPa 0,0 l/m 0 min 0 min 0 W/m 4,5 km/h (1 Bft) 93,62 %
05.07.2018 23:22 20,2 C 16,7 C 18,3 C 73 % 1013,7 hPa 0,0 l/m 0 min 0 min 0 W/m 2,3 km/h (1 Bft) 93,48 %
05.07.2018 23:24 20,2 C 16,7 C 18,3 C 74 % 1013,7 hPa 0,0 l/m 0 min 0 min 0 W/m 2,3 km/h (1 Bft) 93,62 %
05.07.2018 23:26 20,1 C 16,7 C 18,3 C 74 % 1013,8 hPa 0,0 l/m 0 min 0 min 0 W/m 6,8 km/h (2 Bft) 97,92 %
05.07.2018 23:28 20,1 C 16,7 C 18,3 C 74 % 1013,9 hPa 0,0 l/m 0 min 0 min 0 W/m 4,5 km/h (1 Bft) 97,87 %
05.07.2018 23:30 20,1 C 16,7 C 18,3 C 74 % 1013,9 hPa 0,0 l/m 0 min 0 min 0 W/m 4,5 km/h (1 Bft) 95,74 %
05.07.2018 23:32 20,0 C 16,7 C 18,3 C 75 % 1013,8 hPa 0,0 l/m 0 min 0 min 0 W/m 2,3 km/h (1 Bft) 92,00 %
05.07.2018 23:34 19,9 C 16,7 C 18,3 C 75 % 1013,8 hPa 0,0 l/m 0 min 0 min 0 W/m 4,5 km/h (1 Bft) 97,83 %
05.07.2018 23:36 19,9 C 16,7 C 18,3 C 75 % 1013,9 hPa 0,0 l/m 0 min 0 min 0 W/m 9,0 km/h (2 Bft) 100,00 %
05.07.2018 23:38 19,9 C 16,7 C 18,3 C 75 % 1013,9 hPa 0,0 l/m 0 min 0 min 0 W/m 6,8 km/h (2 Bft) 100,00 %
05.07.2018 23:40 19,8 C 16,7 C 18,3 C 75 % 1014,0 hPa 0,0 l/m 0 min 0 min 0 W/m 4,5 km/h (1 Bft) 95,74 %
05.07.2018 23:42 19,8 C 16,7 C 18,3 C 75 % 1013,9 hPa 0,0 l/m 0 min 0 min 0 W/m 4,5 km/h (1 Bft) 100,00 %
05.07.2018 23:44 19,7 C 16,7 C 18,3 C 75 % 1014,0 hPa 0,0 l/m 0 min 0 min 0 W/m 4,5 km/h (1 Bft) 100,00 %
05.07.2018 23:46 19,7 C 17,2 C 18,3 C 76 % 1014,1 hPa 0,0 l/m 0 min 0 min 0 W/m 9,0 km/h (2 Bft) 100,00 %
05.07.2018 23:48 19,7 C 17,8 C 18,3 C 76 % 1014,0 hPa 0,0 l/m 0 min 0 min 0 W/m 9,0 km/h (2 Bft) 100,00 %
05.07.2018 23:50 19,6 C 17,8 C 17,8 C 76 % 1014,0 hPa 0,0 l/m 0 min 0 min 0 W/m 6,8 km/h (2 Bft) 100,00 %
05.07.2018 23:52 19,6 C 17,8 C 17,8 C 76 % 1014,1 hPa 0,0 l/m 0 min 0 min 0 W/m 6,8 km/h (2 Bft) 100,00 %
05.07.2018 23:54 19,6 C 17,8 C 18,3 C 77 % 1014,1 hPa 0,0 l/m 0 min 0 min 0 W/m 4,5 km/h (1 Bft) 100,00 %
05.07.2018 23:56 19,5 C 17,8 C 17,8 C 77 % 1014,1 hPa 0,0 l/m 0 min 0 min 0 W/m 4,5 km/h (1 Bft) 100,00 %
05.07.2018 23:58 19,5 C 17,8 C 17,8 C 77 % 1014,1 hPa 0,0 l/m 0 min 0 min 0 W/m 9,0 km/h (2 Bft) 100,00 %
_ Min-Zeit 06:18 22:14 22:12 18:52 02:32 - - - - 00:02 00:02
Minimum _ 17,7 C 16,1 C 15,6 C 47 % 1010,2 hPa - - - - 0,0 km/h (0 Bft) 20,00 %
_ Max-Zeit 16:42 12:07 17:44 07:32 23:46 00:00 14:08 07:28 15:38 18:44 00:26
Maximum _ 27,8 C 32,2 C 26,1 C 85 % 1014,1 hPa 0,0 l/m 4 min 2 min 912 W/m 27,0 km/h
W-NW (4 Bft)
100,00 %
Durchschnitt _ 22,6 C 22,6 C 20,7 C 68 % 1011,2 hPa #0,0 l/m #10:22 h #12 min. 375 W/m 7,6 km/h (2 Bft) 97,34 %
© 2018 W. Hausmann